<?xml version="1.0" encoding="UTF-8" standalone="no" ?>
<gpx xmlns="http://www.topografix.com/GPX/1/1" xmlns:xsi="http://www.w3.org/2001/XMLSchema-instance" xsi:schemaLocation="http://www.topografix.com/GPX/1/1 http://www.topografix.com/GPX/1/1/gpx.xsd" version="1.1" creator="VisuGPX - https://www.visugpx.com">
  <metadata>
    <name>Notre-Dame de Piétat</name>
    <desc><![CDATA[Randonnée sur des chemins de terre et en plein milieu des bois, avec de belles descentes et montées.
En toute saison, ce sera toujours agréable.]]></desc>
  </metadata>
  <trk>
    <name><![CDATA[Tracé actuel: 06 MARS 2012 14:27]]></name>
    <trkseg>
      <trkpt lat="43.20959" lon="-0.33313">
        <ele>364.96</ele>
        <time>2012-03-06T13:27:46Z</time>
      </trkpt>
      <trkpt lat="43.20951" lon="-0.33317">
        <ele>369.76</ele>
        <time>2012-03-06T13:28:09Z</time>
      </trkpt>
      <trkpt lat="43.20948" lon="-0.33331">
        <ele>371.69</ele>
        <time>2012-03-06T13:28:18Z</time>
      </trkpt>
      <trkpt lat="43.20948" lon="-0.33353">
        <ele>373.13</ele>
        <time>2012-03-06T13:28:29Z</time>
      </trkpt>
      <trkpt lat="43.20947" lon="-0.33369">
        <ele>372.65</ele>
        <time>2012-03-06T13:28:38Z</time>
      </trkpt>
      <trkpt lat="43.20946" lon="-0.33386">
        <ele>374.09</ele>
        <time>2012-03-06T13:28:50Z</time>
      </trkpt>
      <trkpt lat="43.20943" lon="-0.33404">
        <ele>374.57</ele>
        <time>2012-03-06T13:29:01Z</time>
      </trkpt>
      <trkpt lat="43.20942" lon="-0.33428">
        <ele>375.05</ele>
        <time>2012-03-06T13:29:13Z</time>
      </trkpt>
      <trkpt lat="43.20942" lon="-0.33441">
        <ele>375.05</ele>
        <time>2012-03-06T13:29:21Z</time>
      </trkpt>
      <trkpt lat="43.20942" lon="-0.33455">
        <ele>376.01</ele>
        <time>2012-03-06T13:29:31Z</time>
      </trkpt>
      <trkpt lat="43.20942" lon="-0.33469">
        <ele>375.53</ele>
        <time>2012-03-06T13:29:40Z</time>
      </trkpt>
      <trkpt lat="43.20942" lon="-0.33495">
        <ele>377.45</ele>
        <time>2012-03-06T13:29:55Z</time>
      </trkpt>
      <trkpt lat="43.2094" lon="-0.3351">
        <ele>378.42</ele>
        <time>2012-03-06T13:30:04Z</time>
      </trkpt>
      <trkpt lat="43.2094" lon="-0.33524">
        <ele>378.9</ele>
        <time>2012-03-06T13:30:14Z</time>
      </trkpt>
      <trkpt lat="43.2094" lon="-0.33539">
        <ele>379.86</ele>
        <time>2012-03-06T13:30:26Z</time>
      </trkpt>
      <trkpt lat="43.20938" lon="-0.3356">
        <ele>380.82</ele>
        <time>2012-03-06T13:30:40Z</time>
      </trkpt>
      <trkpt lat="43.2094" lon="-0.33584">
        <ele>381.3</ele>
        <time>2012-03-06T13:30:53Z</time>
      </trkpt>
      <trkpt lat="43.20984" lon="-0.3362">
        <ele>382.26</ele>
        <time>2012-03-06T13:31:34Z</time>
      </trkpt>
      <trkpt lat="43.20994" lon="-0.33628">
        <ele>382.26</ele>
        <time>2012-03-06T13:31:43Z</time>
      </trkpt>
      <trkpt lat="43.21" lon="-0.33641">
        <ele>382.26</ele>
        <time>2012-03-06T13:31:53Z</time>
      </trkpt>
      <trkpt lat="43.21006" lon="-0.33653">
        <ele>381.3</ele>
        <time>2012-03-06T13:32:03Z</time>
      </trkpt>
      <trkpt lat="43.21012" lon="-0.33663">
        <ele>381.3</ele>
        <time>2012-03-06T13:32:13Z</time>
      </trkpt>
      <trkpt lat="43.21019" lon="-0.33674">
        <ele>381.3</ele>
        <time>2012-03-06T13:32:22Z</time>
      </trkpt>
      <trkpt lat="43.21026" lon="-0.33686">
        <ele>381.3</ele>
        <time>2012-03-06T13:32:32Z</time>
      </trkpt>
      <trkpt lat="43.21033" lon="-0.33698">
        <ele>381.3</ele>
        <time>2012-03-06T13:32:42Z</time>
      </trkpt>
      <trkpt lat="43.21041" lon="-0.3371">
        <ele>382.26</ele>
        <time>2012-03-06T13:32:52Z</time>
      </trkpt>
      <trkpt lat="43.21047" lon="-0.33723">
        <ele>380.82</ele>
        <time>2012-03-06T13:33:01Z</time>
      </trkpt>
      <trkpt lat="43.21054" lon="-0.33737">
        <ele>380.34</ele>
        <time>2012-03-06T13:33:10Z</time>
      </trkpt>
      <trkpt lat="43.21061" lon="-0.33747">
        <ele>379.86</ele>
        <time>2012-03-06T13:33:18Z</time>
      </trkpt>
      <trkpt lat="43.2107" lon="-0.33754">
        <ele>381.3</ele>
        <time>2012-03-06T13:33:26Z</time>
      </trkpt>
      <trkpt lat="43.21081" lon="-0.33754">
        <ele>379.86</ele>
        <time>2012-03-06T13:33:34Z</time>
      </trkpt>
      <trkpt lat="43.21093" lon="-0.33751">
        <ele>381.3</ele>
        <time>2012-03-06T13:33:42Z</time>
      </trkpt>
      <trkpt lat="43.21102" lon="-0.33749">
        <ele>380.34</ele>
        <time>2012-03-06T13:33:49Z</time>
      </trkpt>
      <trkpt lat="43.21112" lon="-0.33746">
        <ele>380.82</ele>
        <time>2012-03-06T13:33:58Z</time>
      </trkpt>
      <trkpt lat="43.21121" lon="-0.33742">
        <ele>380.82</ele>
        <time>2012-03-06T13:34:06Z</time>
      </trkpt>
      <trkpt lat="43.21131" lon="-0.33739">
        <ele>380.82</ele>
        <time>2012-03-06T13:34:14Z</time>
      </trkpt>
      <trkpt lat="43.21143" lon="-0.33737">
        <ele>379.38</ele>
        <time>2012-03-06T13:34:22Z</time>
      </trkpt>
      <trkpt lat="43.21153" lon="-0.3373">
        <ele>378.42</ele>
        <time>2012-03-06T13:34:30Z</time>
      </trkpt>
      <trkpt lat="43.21162" lon="-0.33725">
        <ele>378.9</ele>
        <time>2012-03-06T13:34:38Z</time>
      </trkpt>
      <trkpt lat="43.21171" lon="-0.33719">
        <ele>377.94</ele>
        <time>2012-03-06T13:34:46Z</time>
      </trkpt>
      <trkpt lat="43.2118" lon="-0.33714">
        <ele>376.49</ele>
        <time>2012-03-06T13:34:54Z</time>
      </trkpt>
      <trkpt lat="43.21189" lon="-0.33708">
        <ele>375.53</ele>
        <time>2012-03-06T13:35:02Z</time>
      </trkpt>
      <trkpt lat="43.21198" lon="-0.33702">
        <ele>375.53</ele>
        <time>2012-03-06T13:35:10Z</time>
      </trkpt>
      <trkpt lat="43.21205" lon="-0.33695">
        <ele>374.57</ele>
        <time>2012-03-06T13:35:18Z</time>
      </trkpt>
      <trkpt lat="43.21214" lon="-0.33688">
        <ele>373.61</ele>
        <time>2012-03-06T13:35:26Z</time>
      </trkpt>
      <trkpt lat="43.21223" lon="-0.3368">
        <ele>373.13</ele>
        <time>2012-03-06T13:35:34Z</time>
      </trkpt>
      <trkpt lat="43.21231" lon="-0.33671">
        <ele>371.69</ele>
        <time>2012-03-06T13:35:43Z</time>
      </trkpt>
      <trkpt lat="43.21239" lon="-0.33663">
        <ele>371.21</ele>
        <time>2012-03-06T13:35:51Z</time>
      </trkpt>
      <trkpt lat="43.21247" lon="-0.33654">
        <ele>370.24</ele>
        <time>2012-03-06T13:35:59Z</time>
      </trkpt>
      <trkpt lat="43.21256" lon="-0.33647">
        <ele>370.24</ele>
        <time>2012-03-06T13:36:08Z</time>
      </trkpt>
      <trkpt lat="43.21264" lon="-0.33639">
        <ele>370.24</ele>
        <time>2012-03-06T13:36:18Z</time>
      </trkpt>
      <trkpt lat="43.21274" lon="-0.33632">
        <ele>369.76</ele>
        <time>2012-03-06T13:36:27Z</time>
      </trkpt>
      <trkpt lat="43.21284" lon="-0.33626">
        <ele>369.28</ele>
        <time>2012-03-06T13:36:36Z</time>
      </trkpt>
      <trkpt lat="43.21293" lon="-0.3362">
        <ele>369.28</ele>
        <time>2012-03-06T13:36:45Z</time>
      </trkpt>
      <trkpt lat="43.21301" lon="-0.33614">
        <ele>368.32</ele>
        <time>2012-03-06T13:36:54Z</time>
      </trkpt>
      <trkpt lat="43.21311" lon="-0.33607">
        <ele>367.36</ele>
        <time>2012-03-06T13:37:04Z</time>
      </trkpt>
      <trkpt lat="43.21322" lon="-0.33601">
        <ele>367.84</ele>
        <time>2012-03-06T13:37:13Z</time>
      </trkpt>
      <trkpt lat="43.21332" lon="-0.33595">
        <ele>366.88</ele>
        <time>2012-03-06T13:37:42Z</time>
      </trkpt>
      <trkpt lat="43.21342" lon="-0.3359">
        <ele>366.4</ele>
        <time>2012-03-06T13:37:49Z</time>
      </trkpt>
      <trkpt lat="43.21352" lon="-0.33585">
        <ele>367.36</ele>
        <time>2012-03-06T13:37:56Z</time>
      </trkpt>
      <trkpt lat="43.21362" lon="-0.33579">
        <ele>366.88</ele>
        <time>2012-03-06T13:38:03Z</time>
      </trkpt>
      <trkpt lat="43.21372" lon="-0.33575">
        <ele>366.88</ele>
        <time>2012-03-06T13:38:10Z</time>
      </trkpt>
      <trkpt lat="43.21383" lon="-0.33572">
        <ele>366.4</ele>
        <time>2012-03-06T13:38:17Z</time>
      </trkpt>
      <trkpt lat="43.21393" lon="-0.33569">
        <ele>365.92</ele>
        <time>2012-03-06T13:38:24Z</time>
      </trkpt>
      <trkpt lat="43.21404" lon="-0.33571">
        <ele>366.88</ele>
        <time>2012-03-06T13:38:32Z</time>
      </trkpt>
      <trkpt lat="43.21415" lon="-0.33573">
        <ele>366.88</ele>
        <time>2012-03-06T13:38:40Z</time>
      </trkpt>
      <trkpt lat="43.21426" lon="-0.33575">
        <ele>367.36</ele>
        <time>2012-03-06T13:38:49Z</time>
      </trkpt>
      <trkpt lat="43.21439" lon="-0.33576">
        <ele>368.8</ele>
        <time>2012-03-06T13:38:59Z</time>
      </trkpt>
      <trkpt lat="43.2145" lon="-0.33577">
        <ele>369.76</ele>
        <time>2012-03-06T13:39:09Z</time>
      </trkpt>
      <trkpt lat="43.21463" lon="-0.33578">
        <ele>371.21</ele>
        <time>2012-03-06T13:39:20Z</time>
      </trkpt>
      <trkpt lat="43.21475" lon="-0.33576">
        <ele>371.69</ele>
        <time>2012-03-06T13:39:32Z</time>
      </trkpt>
      <trkpt lat="43.21487" lon="-0.33574">
        <ele>372.17</ele>
        <time>2012-03-06T13:39:43Z</time>
      </trkpt>
      <trkpt lat="43.21497" lon="-0.3357">
        <ele>373.13</ele>
        <time>2012-03-06T13:39:53Z</time>
      </trkpt>
      <trkpt lat="43.21507" lon="-0.33563">
        <ele>374.09</ele>
        <time>2012-03-06T13:40:03Z</time>
      </trkpt>
      <trkpt lat="43.21515" lon="-0.33553">
        <ele>373.61</ele>
        <time>2012-03-06T13:40:13Z</time>
      </trkpt>
      <trkpt lat="43.21526" lon="-0.33542">
        <ele>373.61</ele>
        <time>2012-03-06T13:40:24Z</time>
      </trkpt>
      <trkpt lat="43.21536" lon="-0.33531">
        <ele>373.61</ele>
        <time>2012-03-06T13:40:35Z</time>
      </trkpt>
      <trkpt lat="43.21545" lon="-0.33521">
        <ele>373.13</ele>
        <time>2012-03-06T13:40:45Z</time>
      </trkpt>
      <trkpt lat="43.21553" lon="-0.3351">
        <ele>373.13</ele>
        <time>2012-03-06T13:40:54Z</time>
      </trkpt>
      <trkpt lat="43.21561" lon="-0.33499">
        <ele>373.13</ele>
        <time>2012-03-06T13:41:03Z</time>
      </trkpt>
      <trkpt lat="43.2157" lon="-0.33489">
        <ele>372.17</ele>
        <time>2012-03-06T13:41:13Z</time>
      </trkpt>
      <trkpt lat="43.21577" lon="-0.33478">
        <ele>372.17</ele>
        <time>2012-03-06T13:41:24Z</time>
      </trkpt>
      <trkpt lat="43.21585" lon="-0.33468">
        <ele>372.17</ele>
        <time>2012-03-06T13:41:33Z</time>
      </trkpt>
      <trkpt lat="43.21595" lon="-0.33457">
        <ele>371.21</ele>
        <time>2012-03-06T13:41:44Z</time>
      </trkpt>
      <trkpt lat="43.21605" lon="-0.33444">
        <ele>371.21</ele>
        <time>2012-03-06T13:41:56Z</time>
      </trkpt>
      <trkpt lat="43.21613" lon="-0.33432">
        <ele>371.21</ele>
        <time>2012-03-06T13:42:05Z</time>
      </trkpt>
      <trkpt lat="43.21621" lon="-0.3342">
        <ele>370.73</ele>
        <time>2012-03-06T13:42:14Z</time>
      </trkpt>
      <trkpt lat="43.21631" lon="-0.33411">
        <ele>370.73</ele>
        <time>2012-03-06T13:42:23Z</time>
      </trkpt>
      <trkpt lat="43.21642" lon="-0.33403">
        <ele>370.24</ele>
        <time>2012-03-06T13:42:34Z</time>
      </trkpt>
      <trkpt lat="43.21654" lon="-0.33399">
        <ele>370.24</ele>
        <time>2012-03-06T13:42:43Z</time>
      </trkpt>
      <trkpt lat="43.21667" lon="-0.33394">
        <ele>370.73</ele>
        <time>2012-03-06T13:42:51Z</time>
      </trkpt>
      <trkpt lat="43.21678" lon="-0.3339">
        <ele>370.73</ele>
        <time>2012-03-06T13:43:00Z</time>
      </trkpt>
      <trkpt lat="43.21687" lon="-0.33384">
        <ele>370.73</ele>
        <time>2012-03-06T13:43:09Z</time>
      </trkpt>
      <trkpt lat="43.21698" lon="-0.3338">
        <ele>371.21</ele>
        <time>2012-03-06T13:43:18Z</time>
      </trkpt>
      <trkpt lat="43.21707" lon="-0.33377">
        <ele>371.69</ele>
        <time>2012-03-06T13:43:27Z</time>
      </trkpt>
      <trkpt lat="43.21716" lon="-0.33372">
        <ele>373.61</ele>
        <time>2012-03-06T13:43:36Z</time>
      </trkpt>
      <trkpt lat="43.21726" lon="-0.33368">
        <ele>374.57</ele>
        <time>2012-03-06T13:43:46Z</time>
      </trkpt>
      <trkpt lat="43.21735" lon="-0.3336">
        <ele>375.53</ele>
        <time>2012-03-06T13:43:59Z</time>
      </trkpt>
      <trkpt lat="43.21742" lon="-0.33348">
        <ele>377.45</ele>
        <time>2012-03-06T13:44:11Z</time>
      </trkpt>
      <trkpt lat="43.21746" lon="-0.33334">
        <ele>379.38</ele>
        <time>2012-03-06T13:44:22Z</time>
      </trkpt>
      <trkpt lat="43.21749" lon="-0.3332">
        <ele>380.34</ele>
        <time>2012-03-06T13:44:32Z</time>
      </trkpt>
      <trkpt lat="43.21753" lon="-0.33305">
        <ele>380.82</ele>
        <time>2012-03-06T13:44:43Z</time>
      </trkpt>
      <trkpt lat="43.21757" lon="-0.3329">
        <ele>381.3</ele>
        <time>2012-03-06T13:44:56Z</time>
      </trkpt>
      <trkpt lat="43.21759" lon="-0.33279">
        <ele>381.78</ele>
        <time>2012-03-06T13:45:07Z</time>
      </trkpt>
      <trkpt lat="43.2176" lon="-0.33267">
        <ele>382.26</ele>
        <time>2012-03-06T13:45:17Z</time>
      </trkpt>
      <trkpt lat="43.21766" lon="-0.33252">
        <ele>383.7</ele>
        <time>2012-03-06T13:45:27Z</time>
      </trkpt>
      <trkpt lat="43.21774" lon="-0.33238">
        <ele>384.66</ele>
        <time>2012-03-06T13:45:38Z</time>
      </trkpt>
      <trkpt lat="43.2178" lon="-0.33224">
        <ele>385.63</ele>
        <time>2012-03-06T13:45:49Z</time>
      </trkpt>
      <trkpt lat="43.21788" lon="-0.33215">
        <ele>386.59</ele>
        <time>2012-03-06T13:45:58Z</time>
      </trkpt>
      <trkpt lat="43.21796" lon="-0.33203">
        <ele>387.55</ele>
        <time>2012-03-06T13:46:10Z</time>
      </trkpt>
      <trkpt lat="43.21802" lon="-0.33192">
        <ele>388.51</ele>
        <time>2012-03-06T13:46:22Z</time>
      </trkpt>
      <trkpt lat="43.21809" lon="-0.33181">
        <ele>389.47</ele>
        <time>2012-03-06T13:46:34Z</time>
      </trkpt>
      <trkpt lat="43.21816" lon="-0.33171">
        <ele>389.47</ele>
        <time>2012-03-06T13:46:45Z</time>
      </trkpt>
      <trkpt lat="43.21825" lon="-0.33161">
        <ele>390.43</ele>
        <time>2012-03-06T13:46:54Z</time>
      </trkpt>
      <trkpt lat="43.21833" lon="-0.33152">
        <ele>389.95</ele>
        <time>2012-03-06T13:47:02Z</time>
      </trkpt>
      <trkpt lat="43.21842" lon="-0.33141">
        <ele>390.43</ele>
        <time>2012-03-06T13:47:10Z</time>
      </trkpt>
      <trkpt lat="43.21849" lon="-0.33132">
        <ele>388.99</ele>
        <time>2012-03-06T13:47:18Z</time>
      </trkpt>
      <trkpt lat="43.21859" lon="-0.33124">
        <ele>388.51</ele>
        <time>2012-03-06T13:47:27Z</time>
      </trkpt>
      <trkpt lat="43.21867" lon="-0.33113">
        <ele>388.03</ele>
        <time>2012-03-06T13:47:35Z</time>
      </trkpt>
      <trkpt lat="43.21874" lon="-0.33103">
        <ele>387.07</ele>
        <time>2012-03-06T13:47:43Z</time>
      </trkpt>
      <trkpt lat="43.21879" lon="-0.33093">
        <ele>387.55</ele>
        <time>2012-03-06T13:47:57Z</time>
      </trkpt>
      <trkpt lat="43.21887" lon="-0.33083">
        <ele>386.59</ele>
        <time>2012-03-06T13:48:06Z</time>
      </trkpt>
      <trkpt lat="43.21898" lon="-0.33069">
        <ele>386.59</ele>
        <time>2012-03-06T13:48:17Z</time>
      </trkpt>
      <trkpt lat="43.21906" lon="-0.33058">
        <ele>386.11</ele>
        <time>2012-03-06T13:48:26Z</time>
      </trkpt>
      <trkpt lat="43.21911" lon="-0.33047">
        <ele>386.59</ele>
        <time>2012-03-06T13:48:34Z</time>
      </trkpt>
      <trkpt lat="43.21919" lon="-0.33033">
        <ele>386.11</ele>
        <time>2012-03-06T13:48:43Z</time>
      </trkpt>
      <trkpt lat="43.21926" lon="-0.33021">
        <ele>386.59</ele>
        <time>2012-03-06T13:48:52Z</time>
      </trkpt>
      <trkpt lat="43.21932" lon="-0.33009">
        <ele>387.55</ele>
        <time>2012-03-06T13:49:01Z</time>
      </trkpt>
      <trkpt lat="43.2194" lon="-0.32996">
        <ele>387.55</ele>
        <time>2012-03-06T13:49:11Z</time>
      </trkpt>
      <trkpt lat="43.21947" lon="-0.32986">
        <ele>388.03</ele>
        <time>2012-03-06T13:49:21Z</time>
      </trkpt>
      <trkpt lat="43.21956" lon="-0.32974">
        <ele>388.51</ele>
        <time>2012-03-06T13:49:33Z</time>
      </trkpt>
      <trkpt lat="43.21962" lon="-0.32965">
        <ele>389.47</ele>
        <time>2012-03-06T13:49:50Z</time>
      </trkpt>
      <trkpt lat="43.21957" lon="-0.32952">
        <ele>389.47</ele>
        <time>2012-03-06T13:50:00Z</time>
      </trkpt>
      <trkpt lat="43.21952" lon="-0.3294">
        <ele>388.03</ele>
        <time>2012-03-06T13:50:09Z</time>
      </trkpt>
      <trkpt lat="43.21946" lon="-0.32928">
        <ele>386.11</ele>
        <time>2012-03-06T13:50:20Z</time>
      </trkpt>
      <trkpt lat="43.21938" lon="-0.32916">
        <ele>385.15</ele>
        <time>2012-03-06T13:50:32Z</time>
      </trkpt>
      <trkpt lat="43.21933" lon="-0.32902">
        <ele>382.74</ele>
        <time>2012-03-06T13:50:43Z</time>
      </trkpt>
      <trkpt lat="43.21928" lon="-0.32889">
        <ele>381.78</ele>
        <time>2012-03-06T13:50:54Z</time>
      </trkpt>
      <trkpt lat="43.21922" lon="-0.32876">
        <ele>380.34</ele>
        <time>2012-03-06T13:51:04Z</time>
      </trkpt>
      <trkpt lat="43.21917" lon="-0.32865">
        <ele>379.38</ele>
        <time>2012-03-06T13:51:15Z</time>
      </trkpt>
      <trkpt lat="43.21911" lon="-0.32851">
        <ele>377.94</ele>
        <time>2012-03-06T13:51:26Z</time>
      </trkpt>
      <trkpt lat="43.21908" lon="-0.32838">
        <ele>376.97</ele>
        <time>2012-03-06T13:51:36Z</time>
      </trkpt>
      <trkpt lat="43.21903" lon="-0.32828">
        <ele>375.53</ele>
        <time>2012-03-06T13:51:43Z</time>
      </trkpt>
      <trkpt lat="43.21897" lon="-0.32818">
        <ele>374.57</ele>
        <time>2012-03-06T13:51:51Z</time>
      </trkpt>
      <trkpt lat="43.21893" lon="-0.32802">
        <ele>372.65</ele>
        <time>2012-03-06T13:52:01Z</time>
      </trkpt>
      <trkpt lat="43.2189" lon="-0.3279">
        <ele>371.69</ele>
        <time>2012-03-06T13:52:13Z</time>
      </trkpt>
      <trkpt lat="43.21889" lon="-0.32777">
        <ele>370.73</ele>
        <time>2012-03-06T13:52:23Z</time>
      </trkpt>
      <trkpt lat="43.21887" lon="-0.32764">
        <ele>369.76</ele>
        <time>2012-03-06T13:52:32Z</time>
      </trkpt>
      <trkpt lat="43.21884" lon="-0.32749">
        <ele>368.32</ele>
        <time>2012-03-06T13:52:45Z</time>
      </trkpt>
      <trkpt lat="43.21867" lon="-0.32723">
        <ele>358.71</ele>
        <time>2012-03-06T13:53:44Z</time>
      </trkpt>
      <trkpt lat="43.2184" lon="-0.32692">
        <ele>355.83</ele>
        <time>2012-03-06T13:53:59Z</time>
      </trkpt>
      <trkpt lat="43.21816" lon="-0.32659">
        <ele>353.9</ele>
        <time>2012-03-06T13:54:16Z</time>
      </trkpt>
      <trkpt lat="43.2181" lon="-0.32649">
        <ele>352.46</ele>
        <time>2012-03-06T13:54:25Z</time>
      </trkpt>
      <trkpt lat="43.21802" lon="-0.32638">
        <ele>350.54</ele>
        <time>2012-03-06T13:54:35Z</time>
      </trkpt>
      <trkpt lat="43.21796" lon="-0.32629">
        <ele>348.62</ele>
        <time>2012-03-06T13:54:47Z</time>
      </trkpt>
      <trkpt lat="43.21788" lon="-0.32613">
        <ele>347.17</ele>
        <time>2012-03-06T13:55:00Z</time>
      </trkpt>
      <trkpt lat="43.2178" lon="-0.32601">
        <ele>346.69</ele>
        <time>2012-03-06T13:55:10Z</time>
      </trkpt>
      <trkpt lat="43.21773" lon="-0.32589">
        <ele>345.73</ele>
        <time>2012-03-06T13:55:19Z</time>
      </trkpt>
      <trkpt lat="43.21764" lon="-0.3258">
        <ele>344.77</ele>
        <time>2012-03-06T13:55:32Z</time>
      </trkpt>
      <trkpt lat="43.21756" lon="-0.3257">
        <ele>343.81</ele>
        <time>2012-03-06T13:55:41Z</time>
      </trkpt>
      <trkpt lat="43.21751" lon="-0.32557">
        <ele>342.85</ele>
        <time>2012-03-06T13:55:51Z</time>
      </trkpt>
      <trkpt lat="43.21744" lon="-0.32544">
        <ele>342.85</ele>
        <time>2012-03-06T13:56:02Z</time>
      </trkpt>
      <trkpt lat="43.21736" lon="-0.32527">
        <ele>341.41</ele>
        <time>2012-03-06T13:56:14Z</time>
      </trkpt>
      <trkpt lat="43.2173" lon="-0.32514">
        <ele>340.44</ele>
        <time>2012-03-06T13:56:25Z</time>
      </trkpt>
      <trkpt lat="43.21721" lon="-0.325">
        <ele>338.52</ele>
        <time>2012-03-06T13:56:38Z</time>
      </trkpt>
      <trkpt lat="43.21713" lon="-0.32483">
        <ele>337.08</ele>
        <time>2012-03-06T13:56:48Z</time>
      </trkpt>
      <trkpt lat="43.21708" lon="-0.32468">
        <ele>335.64</ele>
        <time>2012-03-06T13:57:01Z</time>
      </trkpt>
      <trkpt lat="43.21706" lon="-0.32455">
        <ele>334.2</ele>
        <time>2012-03-06T13:57:10Z</time>
      </trkpt>
      <trkpt lat="43.217" lon="-0.32442">
        <ele>333.71</ele>
        <time>2012-03-06T13:57:20Z</time>
      </trkpt>
      <trkpt lat="43.21696" lon="-0.32427">
        <ele>332.27</ele>
        <time>2012-03-06T13:57:30Z</time>
      </trkpt>
      <trkpt lat="43.21691" lon="-0.32413">
        <ele>330.35</ele>
        <time>2012-03-06T13:57:39Z</time>
      </trkpt>
      <trkpt lat="43.21688" lon="-0.32399">
        <ele>328.91</ele>
        <time>2012-03-06T13:57:48Z</time>
      </trkpt>
      <trkpt lat="43.21684" lon="-0.32386">
        <ele>327.95</ele>
        <time>2012-03-06T13:57:58Z</time>
      </trkpt>
      <trkpt lat="43.21682" lon="-0.3237">
        <ele>326.02</ele>
        <time>2012-03-06T13:58:10Z</time>
      </trkpt>
      <trkpt lat="43.2168" lon="-0.32356">
        <ele>325.54</ele>
        <time>2012-03-06T13:58:20Z</time>
      </trkpt>
      <trkpt lat="43.21676" lon="-0.32341">
        <ele>325.06</ele>
        <time>2012-03-06T13:58:31Z</time>
      </trkpt>
      <trkpt lat="43.21674" lon="-0.32324">
        <ele>323.14</ele>
        <time>2012-03-06T13:58:41Z</time>
      </trkpt>
      <trkpt lat="43.21669" lon="-0.32308">
        <ele>322.18</ele>
        <time>2012-03-06T13:58:53Z</time>
      </trkpt>
      <trkpt lat="43.21665" lon="-0.32292">
        <ele>320.74</ele>
        <time>2012-03-06T13:59:02Z</time>
      </trkpt>
      <trkpt lat="43.2166" lon="-0.32276">
        <ele>320.26</ele>
        <time>2012-03-06T13:59:14Z</time>
      </trkpt>
      <trkpt lat="43.21658" lon="-0.32262">
        <ele>318.81</ele>
        <time>2012-03-06T13:59:26Z</time>
      </trkpt>
      <trkpt lat="43.21654" lon="-0.32248">
        <ele>318.33</ele>
        <time>2012-03-06T13:59:35Z</time>
      </trkpt>
      <trkpt lat="43.2165" lon="-0.32232">
        <ele>316.89</ele>
        <time>2012-03-06T13:59:45Z</time>
      </trkpt>
      <trkpt lat="43.21647" lon="-0.32217">
        <ele>317.37</ele>
        <time>2012-03-06T13:59:54Z</time>
      </trkpt>
      <trkpt lat="43.21646" lon="-0.32204">
        <ele>315.45</ele>
        <time>2012-03-06T14:00:03Z</time>
      </trkpt>
      <trkpt lat="43.21641" lon="-0.3219">
        <ele>314.97</ele>
        <time>2012-03-06T14:00:12Z</time>
      </trkpt>
      <trkpt lat="43.21634" lon="-0.3217">
        <ele>311.6</ele>
        <time>2012-03-06T14:04:05Z</time>
      </trkpt>
      <trkpt lat="43.21629" lon="-0.32151">
        <ele>310.64</ele>
        <time>2012-03-06T14:04:13Z</time>
      </trkpt>
      <trkpt lat="43.21628" lon="-0.32138">
        <ele>309.68</ele>
        <time>2012-03-06T14:04:24Z</time>
      </trkpt>
      <trkpt lat="43.21625" lon="-0.32125">
        <ele>306.8</ele>
        <time>2012-03-06T14:04:41Z</time>
      </trkpt>
      <trkpt lat="43.21621" lon="-0.32108">
        <ele>305.36</ele>
        <time>2012-03-06T14:04:51Z</time>
      </trkpt>
      <trkpt lat="43.21618" lon="-0.32091">
        <ele>303.91</ele>
        <time>2012-03-06T14:05:02Z</time>
      </trkpt>
      <trkpt lat="43.21615" lon="-0.32079">
        <ele>301.99</ele>
        <time>2012-03-06T14:05:12Z</time>
      </trkpt>
      <trkpt lat="43.21613" lon="-0.32063">
        <ele>300.07</ele>
        <time>2012-03-06T14:05:26Z</time>
      </trkpt>
      <trkpt lat="43.21611" lon="-0.3205">
        <ele>297.67</ele>
        <time>2012-03-06T14:05:38Z</time>
      </trkpt>
      <trkpt lat="43.21607" lon="-0.32038">
        <ele>296.22</ele>
        <time>2012-03-06T14:05:47Z</time>
      </trkpt>
      <trkpt lat="43.21599" lon="-0.32022">
        <ele>294.3</ele>
        <time>2012-03-06T14:05:58Z</time>
      </trkpt>
      <trkpt lat="43.21597" lon="-0.32008">
        <ele>292.38</ele>
        <time>2012-03-06T14:06:09Z</time>
      </trkpt>
      <trkpt lat="43.21592" lon="-0.31994">
        <ele>290.46</ele>
        <time>2012-03-06T14:06:22Z</time>
      </trkpt>
      <trkpt lat="43.21585" lon="-0.3198">
        <ele>288.05</ele>
        <time>2012-03-06T14:06:36Z</time>
      </trkpt>
      <trkpt lat="43.21577" lon="-0.31964">
        <ele>286.13</ele>
        <time>2012-03-06T14:06:51Z</time>
      </trkpt>
      <trkpt lat="43.21569" lon="-0.31949">
        <ele>284.21</ele>
        <time>2012-03-06T14:07:03Z</time>
      </trkpt>
      <trkpt lat="43.21564" lon="-0.31938">
        <ele>283.25</ele>
        <time>2012-03-06T14:07:13Z</time>
      </trkpt>
      <trkpt lat="43.21561" lon="-0.31923">
        <ele>281.8</ele>
        <time>2012-03-06T14:07:24Z</time>
      </trkpt>
      <trkpt lat="43.21558" lon="-0.31908">
        <ele>280.84</ele>
        <time>2012-03-06T14:07:34Z</time>
      </trkpt>
      <trkpt lat="43.21551" lon="-0.31898">
        <ele>278.92</ele>
        <time>2012-03-06T14:07:44Z</time>
      </trkpt>
      <trkpt lat="43.21546" lon="-0.31887">
        <ele>277.48</ele>
        <time>2012-03-06T14:07:53Z</time>
      </trkpt>
      <trkpt lat="43.21542" lon="-0.31871">
        <ele>276.04</ele>
        <time>2012-03-06T14:08:04Z</time>
      </trkpt>
      <trkpt lat="43.2154" lon="-0.31858">
        <ele>273.63</ele>
        <time>2012-03-06T14:08:20Z</time>
      </trkpt>
      <trkpt lat="43.21536" lon="-0.31845">
        <ele>271.23</ele>
        <time>2012-03-06T14:08:31Z</time>
      </trkpt>
      <trkpt lat="43.21529" lon="-0.31832">
        <ele>269.31</ele>
        <time>2012-03-06T14:08:44Z</time>
      </trkpt>
      <trkpt lat="43.21524" lon="-0.31816">
        <ele>267.86</ele>
        <time>2012-03-06T14:08:57Z</time>
      </trkpt>
      <trkpt lat="43.2152" lon="-0.318">
        <ele>265.94</ele>
        <time>2012-03-06T14:09:11Z</time>
      </trkpt>
      <trkpt lat="43.21517" lon="-0.31782">
        <ele>264.5</ele>
        <time>2012-03-06T14:09:20Z</time>
      </trkpt>
      <trkpt lat="43.21511" lon="-0.31769">
        <ele>263.54</ele>
        <time>2012-03-06T14:09:30Z</time>
      </trkpt>
      <trkpt lat="43.21503" lon="-0.31761">
        <ele>261.62</ele>
        <time>2012-03-06T14:09:42Z</time>
      </trkpt>
      <trkpt lat="43.21495" lon="-0.31754">
        <ele>261.62</ele>
        <time>2012-03-06T14:09:50Z</time>
      </trkpt>
      <trkpt lat="43.21489" lon="-0.31745">
        <ele>259.69</ele>
        <time>2012-03-06T14:10:12Z</time>
      </trkpt>
      <trkpt lat="43.21481" lon="-0.3172">
        <ele>258.25</ele>
        <time>2012-03-06T14:10:31Z</time>
      </trkpt>
      <trkpt lat="43.21484" lon="-0.31706">
        <ele>258.25</ele>
        <time>2012-03-06T14:10:42Z</time>
      </trkpt>
      <trkpt lat="43.21489" lon="-0.31693">
        <ele>257.77</ele>
        <time>2012-03-06T14:10:54Z</time>
      </trkpt>
      <trkpt lat="43.21492" lon="-0.31681">
        <ele>257.29</ele>
        <time>2012-03-06T14:11:04Z</time>
      </trkpt>
      <trkpt lat="43.21497" lon="-0.31669">
        <ele>255.85</ele>
        <time>2012-03-06T14:11:13Z</time>
      </trkpt>
      <trkpt lat="43.215" lon="-0.31655">
        <ele>255.37</ele>
        <time>2012-03-06T14:11:24Z</time>
      </trkpt>
      <trkpt lat="43.21503" lon="-0.31643">
        <ele>254.41</ele>
        <time>2012-03-06T14:11:35Z</time>
      </trkpt>
      <trkpt lat="43.21508" lon="-0.31631">
        <ele>252.96</ele>
        <time>2012-03-06T14:11:44Z</time>
      </trkpt>
      <trkpt lat="43.2151" lon="-0.31617">
        <ele>251.52</ele>
        <time>2012-03-06T14:11:55Z</time>
      </trkpt>
      <trkpt lat="43.21513" lon="-0.31605">
        <ele>251.04</ele>
        <time>2012-03-06T14:12:05Z</time>
      </trkpt>
      <trkpt lat="43.2151" lon="-0.31593">
        <ele>249.12</ele>
        <time>2012-03-06T14:12:22Z</time>
      </trkpt>
      <trkpt lat="43.21509" lon="-0.31573">
        <ele>247.2</ele>
        <time>2012-03-06T14:12:50Z</time>
      </trkpt>
      <trkpt lat="43.21505" lon="-0.3155">
        <ele>247.2</ele>
        <time>2012-03-06T14:13:01Z</time>
      </trkpt>
      <trkpt lat="43.21514" lon="-0.31538">
        <ele>244.79</ele>
        <time>2012-03-06T14:13:14Z</time>
      </trkpt>
      <trkpt lat="43.21524" lon="-0.31529">
        <ele>243.83</ele>
        <time>2012-03-06T14:13:26Z</time>
      </trkpt>
      <trkpt lat="43.21533" lon="-0.31519">
        <ele>241.91</ele>
        <time>2012-03-06T14:13:40Z</time>
      </trkpt>
      <trkpt lat="43.21542" lon="-0.31508">
        <ele>239.99</ele>
        <time>2012-03-06T14:13:54Z</time>
      </trkpt>
      <trkpt lat="43.21555" lon="-0.31499">
        <ele>238.06</ele>
        <time>2012-03-06T14:14:07Z</time>
      </trkpt>
      <trkpt lat="43.21566" lon="-0.31492">
        <ele>235.66</ele>
        <time>2012-03-06T14:14:20Z</time>
      </trkpt>
      <trkpt lat="43.21574" lon="-0.31484">
        <ele>230.85</ele>
        <time>2012-03-06T14:14:50Z</time>
      </trkpt>
      <trkpt lat="43.21593" lon="-0.31464">
        <ele>229.41</ele>
        <time>2012-03-06T14:15:02Z</time>
      </trkpt>
      <trkpt lat="43.21597" lon="-0.31451">
        <ele>227.49</ele>
        <time>2012-03-06T14:15:13Z</time>
      </trkpt>
      <trkpt lat="43.216" lon="-0.31438">
        <ele>226.53</ele>
        <time>2012-03-06T14:15:22Z</time>
      </trkpt>
      <trkpt lat="43.21599" lon="-0.31425">
        <ele>225.09</ele>
        <time>2012-03-06T14:15:32Z</time>
      </trkpt>
      <trkpt lat="43.21602" lon="-0.31413">
        <ele>224.61</ele>
        <time>2012-03-06T14:15:43Z</time>
      </trkpt>
      <trkpt lat="43.21601" lon="-0.31397">
        <ele>224.12</ele>
        <time>2012-03-06T14:15:55Z</time>
      </trkpt>
      <trkpt lat="43.216" lon="-0.31384">
        <ele>223.16</ele>
        <time>2012-03-06T14:16:08Z</time>
      </trkpt>
      <trkpt lat="43.21599" lon="-0.31371">
        <ele>222.2</ele>
        <time>2012-03-06T14:16:18Z</time>
      </trkpt>
      <trkpt lat="43.21595" lon="-0.31359">
        <ele>222.68</ele>
        <time>2012-03-06T14:16:28Z</time>
      </trkpt>
      <trkpt lat="43.21593" lon="-0.31346">
        <ele>222.68</ele>
        <time>2012-03-06T14:16:38Z</time>
      </trkpt>
      <trkpt lat="43.2159" lon="-0.31333">
        <ele>222.68</ele>
        <time>2012-03-06T14:16:48Z</time>
      </trkpt>
      <trkpt lat="43.21589" lon="-0.3132">
        <ele>221.72</ele>
        <time>2012-03-06T14:16:58Z</time>
      </trkpt>
      <trkpt lat="43.21593" lon="-0.31308">
        <ele>221.72</ele>
        <time>2012-03-06T14:17:08Z</time>
      </trkpt>
      <trkpt lat="43.21596" lon="-0.31296">
        <ele>220.76</ele>
        <time>2012-03-06T14:17:17Z</time>
      </trkpt>
      <trkpt lat="43.216" lon="-0.31282">
        <ele>220.28</ele>
        <time>2012-03-06T14:17:28Z</time>
      </trkpt>
      <trkpt lat="43.21603" lon="-0.31268">
        <ele>219.8</ele>
        <time>2012-03-06T14:17:39Z</time>
      </trkpt>
      <trkpt lat="43.2161" lon="-0.31258">
        <ele>219.8</ele>
        <time>2012-03-06T14:17:52Z</time>
      </trkpt>
      <trkpt lat="43.21617" lon="-0.31251">
        <ele>218.36</ele>
        <time>2012-03-06T14:18:14Z</time>
      </trkpt>
      <trkpt lat="43.21624" lon="-0.31246">
        <ele>219.8</ele>
        <time>2012-03-06T14:18:44Z</time>
      </trkpt>
      <trkpt lat="43.21628" lon="-0.31256">
        <ele>218.84</ele>
        <time>2012-03-06T14:20:24Z</time>
      </trkpt>
      <trkpt lat="43.21625" lon="-0.31278">
        <ele>219.32</ele>
        <time>2012-03-06T14:20:37Z</time>
      </trkpt>
      <trkpt lat="43.21625" lon="-0.31296">
        <ele>219.8</ele>
        <time>2012-03-06T14:20:49Z</time>
      </trkpt>
      <trkpt lat="43.21626" lon="-0.3131">
        <ele>219.8</ele>
        <time>2012-03-06T14:20:58Z</time>
      </trkpt>
      <trkpt lat="43.2163" lon="-0.31324">
        <ele>220.76</ele>
        <time>2012-03-06T14:21:10Z</time>
      </trkpt>
      <trkpt lat="43.2163" lon="-0.31343">
        <ele>221.72</ele>
        <time>2012-03-06T14:21:21Z</time>
      </trkpt>
      <trkpt lat="43.21629" lon="-0.31364">
        <ele>223.16</ele>
        <time>2012-03-06T14:21:33Z</time>
      </trkpt>
      <trkpt lat="43.21632" lon="-0.31379">
        <ele>224.61</ele>
        <time>2012-03-06T14:21:47Z</time>
      </trkpt>
      <trkpt lat="43.21635" lon="-0.31393">
        <ele>226.05</ele>
        <time>2012-03-06T14:21:56Z</time>
      </trkpt>
      <trkpt lat="43.21643" lon="-0.3141">
        <ele>226.53</ele>
        <time>2012-03-06T14:22:09Z</time>
      </trkpt>
      <trkpt lat="43.21651" lon="-0.31425">
        <ele>227.01</ele>
        <time>2012-03-06T14:22:21Z</time>
      </trkpt>
      <trkpt lat="43.21658" lon="-0.31435">
        <ele>228.45</ele>
        <time>2012-03-06T14:22:31Z</time>
      </trkpt>
      <trkpt lat="43.21665" lon="-0.31444">
        <ele>228.45</ele>
        <time>2012-03-06T14:22:39Z</time>
      </trkpt>
      <trkpt lat="43.21675" lon="-0.31451">
        <ele>229.41</ele>
        <time>2012-03-06T14:22:50Z</time>
      </trkpt>
      <trkpt lat="43.21684" lon="-0.31458">
        <ele>229.41</ele>
        <time>2012-03-06T14:22:59Z</time>
      </trkpt>
      <trkpt lat="43.21695" lon="-0.31465">
        <ele>230.37</ele>
        <time>2012-03-06T14:23:08Z</time>
      </trkpt>
      <trkpt lat="43.21704" lon="-0.31467">
        <ele>232.3</ele>
        <time>2012-03-06T14:23:22Z</time>
      </trkpt>
      <trkpt lat="43.21713" lon="-0.3147">
        <ele>232.78</ele>
        <time>2012-03-06T14:23:29Z</time>
      </trkpt>
      <trkpt lat="43.21722" lon="-0.31471">
        <ele>233.74</ele>
        <time>2012-03-06T14:23:41Z</time>
      </trkpt>
      <trkpt lat="43.21738" lon="-0.31473">
        <ele>234.7</ele>
        <time>2012-03-06T14:23:54Z</time>
      </trkpt>
      <trkpt lat="43.21747" lon="-0.31478">
        <ele>235.18</ele>
        <time>2012-03-06T14:24:03Z</time>
      </trkpt>
      <trkpt lat="43.21756" lon="-0.31483">
        <ele>235.66</ele>
        <time>2012-03-06T14:24:18Z</time>
      </trkpt>
      <trkpt lat="43.21759" lon="-0.31496">
        <ele>236.14</ele>
        <time>2012-03-06T14:24:35Z</time>
      </trkpt>
      <trkpt lat="43.2176" lon="-0.3151">
        <ele>237.1</ele>
        <time>2012-03-06T14:24:47Z</time>
      </trkpt>
      <trkpt lat="43.21764" lon="-0.31526">
        <ele>238.06</ele>
        <time>2012-03-06T14:24:59Z</time>
      </trkpt>
      <trkpt lat="43.21768" lon="-0.31543">
        <ele>239.99</ele>
        <time>2012-03-06T14:25:10Z</time>
      </trkpt>
      <trkpt lat="43.21774" lon="-0.31553">
        <ele>240.95</ele>
        <time>2012-03-06T14:25:24Z</time>
      </trkpt>
      <trkpt lat="43.21777" lon="-0.31562">
        <ele>241.43</ele>
        <time>2012-03-06T14:26:22Z</time>
      </trkpt>
      <trkpt lat="43.21783" lon="-0.31575">
        <ele>242.39</ele>
        <time>2012-03-06T14:27:14Z</time>
      </trkpt>
      <trkpt lat="43.2179" lon="-0.31586">
        <ele>243.35</ele>
        <time>2012-03-06T14:27:24Z</time>
      </trkpt>
      <trkpt lat="43.21799" lon="-0.31597">
        <ele>244.31</ele>
        <time>2012-03-06T14:27:38Z</time>
      </trkpt>
      <trkpt lat="43.21808" lon="-0.31605">
        <ele>245.27</ele>
        <time>2012-03-06T14:27:48Z</time>
      </trkpt>
      <trkpt lat="43.21815" lon="-0.31619">
        <ele>246.23</ele>
        <time>2012-03-06T14:28:00Z</time>
      </trkpt>
      <trkpt lat="43.21824" lon="-0.31629">
        <ele>247.2</ele>
        <time>2012-03-06T14:28:12Z</time>
      </trkpt>
      <trkpt lat="43.21833" lon="-0.31638">
        <ele>248.64</ele>
        <time>2012-03-06T14:28:25Z</time>
      </trkpt>
      <trkpt lat="43.21841" lon="-0.31648">
        <ele>249.12</ele>
        <time>2012-03-06T14:28:35Z</time>
      </trkpt>
      <trkpt lat="43.21849" lon="-0.3166">
        <ele>250.56</ele>
        <time>2012-03-06T14:28:45Z</time>
      </trkpt>
      <trkpt lat="43.21857" lon="-0.31674">
        <ele>251.52</ele>
        <time>2012-03-06T14:28:56Z</time>
      </trkpt>
      <trkpt lat="43.21865" lon="-0.31681">
        <ele>252.96</ele>
        <time>2012-03-06T14:29:07Z</time>
      </trkpt>
      <trkpt lat="43.21875" lon="-0.31687">
        <ele>253.44</ele>
        <time>2012-03-06T14:29:17Z</time>
      </trkpt>
      <trkpt lat="43.21885" lon="-0.31694">
        <ele>254.89</ele>
        <time>2012-03-06T14:29:28Z</time>
      </trkpt>
      <trkpt lat="43.21893" lon="-0.31702">
        <ele>254.41</ele>
        <time>2012-03-06T14:29:38Z</time>
      </trkpt>
      <trkpt lat="43.21901" lon="-0.3171">
        <ele>254.89</ele>
        <time>2012-03-06T14:29:47Z</time>
      </trkpt>
      <trkpt lat="43.21913" lon="-0.31721">
        <ele>255.85</ele>
        <time>2012-03-06T14:29:59Z</time>
      </trkpt>
      <trkpt lat="43.21923" lon="-0.31728">
        <ele>256.81</ele>
        <time>2012-03-06T14:30:11Z</time>
      </trkpt>
      <trkpt lat="43.21932" lon="-0.31736">
        <ele>257.77</ele>
        <time>2012-03-06T14:30:21Z</time>
      </trkpt>
      <trkpt lat="43.21941" lon="-0.31745">
        <ele>257.29</ele>
        <time>2012-03-06T14:30:30Z</time>
      </trkpt>
      <trkpt lat="43.21947" lon="-0.31758">
        <ele>257.77</ele>
        <time>2012-03-06T14:30:41Z</time>
      </trkpt>
      <trkpt lat="43.21955" lon="-0.31772">
        <ele>257.77</ele>
        <time>2012-03-06T14:30:52Z</time>
      </trkpt>
      <trkpt lat="43.21964" lon="-0.31782">
        <ele>258.25</ele>
        <time>2012-03-06T14:31:02Z</time>
      </trkpt>
      <trkpt lat="43.21973" lon="-0.31789">
        <ele>258.73</ele>
        <time>2012-03-06T14:31:15Z</time>
      </trkpt>
      <trkpt lat="43.21981" lon="-0.31796">
        <ele>258.73</ele>
        <time>2012-03-06T14:31:25Z</time>
      </trkpt>
      <trkpt lat="43.21989" lon="-0.31802">
        <ele>258.73</ele>
        <time>2012-03-06T14:31:35Z</time>
      </trkpt>
      <trkpt lat="43.21998" lon="-0.3181">
        <ele>259.69</ele>
        <time>2012-03-06T14:31:43Z</time>
      </trkpt>
      <trkpt lat="43.22006" lon="-0.31818">
        <ele>260.17</ele>
        <time>2012-03-06T14:31:50Z</time>
      </trkpt>
      <trkpt lat="43.22021" lon="-0.31826">
        <ele>261.14</ele>
        <time>2012-03-06T14:32:01Z</time>
      </trkpt>
      <trkpt lat="43.22029" lon="-0.31834">
        <ele>264.02</ele>
        <time>2012-03-06T14:32:18Z</time>
      </trkpt>
      <trkpt lat="43.22036" lon="-0.31844">
        <ele>265.94</ele>
        <time>2012-03-06T14:32:31Z</time>
      </trkpt>
      <trkpt lat="43.22041" lon="-0.31856">
        <ele>267.86</ele>
        <time>2012-03-06T14:32:40Z</time>
      </trkpt>
      <trkpt lat="43.22045" lon="-0.31867">
        <ele>270.27</ele>
        <time>2012-03-06T14:32:57Z</time>
      </trkpt>
      <trkpt lat="43.2205" lon="-0.31886">
        <ele>273.15</ele>
        <time>2012-03-06T14:33:17Z</time>
      </trkpt>
      <trkpt lat="43.22054" lon="-0.31912">
        <ele>275.07</ele>
        <time>2012-03-06T14:33:33Z</time>
      </trkpt>
      <trkpt lat="43.22055" lon="-0.31928">
        <ele>276.52</ele>
        <time>2012-03-06T14:33:44Z</time>
      </trkpt>
      <trkpt lat="43.22054" lon="-0.31946">
        <ele>278.44</ele>
        <time>2012-03-06T14:33:56Z</time>
      </trkpt>
      <trkpt lat="43.22057" lon="-0.31961">
        <ele>280.36</ele>
        <time>2012-03-06T14:34:12Z</time>
      </trkpt>
      <trkpt lat="43.22062" lon="-0.31976">
        <ele>281.32</ele>
        <time>2012-03-06T14:34:24Z</time>
      </trkpt>
      <trkpt lat="43.2207" lon="-0.31986">
        <ele>283.25</ele>
        <time>2012-03-06T14:34:34Z</time>
      </trkpt>
      <trkpt lat="43.22079" lon="-0.31993">
        <ele>285.17</ele>
        <time>2012-03-06T14:34:47Z</time>
      </trkpt>
      <trkpt lat="43.22088" lon="-0.32001">
        <ele>287.09</ele>
        <time>2012-03-06T14:35:00Z</time>
      </trkpt>
      <trkpt lat="43.22094" lon="-0.32015">
        <ele>288.05</ele>
        <time>2012-03-06T14:35:12Z</time>
      </trkpt>
      <trkpt lat="43.22099" lon="-0.3203">
        <ele>289.49</ele>
        <time>2012-03-06T14:35:21Z</time>
      </trkpt>
      <trkpt lat="43.22107" lon="-0.32038">
        <ele>289.97</ele>
        <time>2012-03-06T14:35:32Z</time>
      </trkpt>
      <trkpt lat="43.22114" lon="-0.32053">
        <ele>290.94</ele>
        <time>2012-03-06T14:35:42Z</time>
      </trkpt>
      <trkpt lat="43.2212" lon="-0.3207">
        <ele>291.9</ele>
        <time>2012-03-06T14:35:52Z</time>
      </trkpt>
      <trkpt lat="43.22126" lon="-0.32086">
        <ele>293.82</ele>
        <time>2012-03-06T14:36:04Z</time>
      </trkpt>
      <trkpt lat="43.22127" lon="-0.32102">
        <ele>295.74</ele>
        <time>2012-03-06T14:36:17Z</time>
      </trkpt>
      <trkpt lat="43.22125" lon="-0.32116">
        <ele>297.67</ele>
        <time>2012-03-06T14:36:33Z</time>
      </trkpt>
      <trkpt lat="43.22131" lon="-0.32127">
        <ele>300.07</ele>
        <time>2012-03-06T14:36:47Z</time>
      </trkpt>
      <trkpt lat="43.22139" lon="-0.3214">
        <ele>301.99</ele>
        <time>2012-03-06T14:37:00Z</time>
      </trkpt>
      <trkpt lat="43.22142" lon="-0.32153">
        <ele>304.39</ele>
        <time>2012-03-06T14:37:13Z</time>
      </trkpt>
      <trkpt lat="43.22147" lon="-0.32166">
        <ele>306.32</ele>
        <time>2012-03-06T14:37:26Z</time>
      </trkpt>
      <trkpt lat="43.22153" lon="-0.32178">
        <ele>309.68</ele>
        <time>2012-03-06T14:37:44Z</time>
      </trkpt>
      <trkpt lat="43.2216" lon="-0.32187">
        <ele>311.6</ele>
        <time>2012-03-06T14:37:57Z</time>
      </trkpt>
      <trkpt lat="43.22164" lon="-0.32198">
        <ele>314.49</ele>
        <time>2012-03-06T14:38:12Z</time>
      </trkpt>
      <trkpt lat="43.22169" lon="-0.32209">
        <ele>316.89</ele>
        <time>2012-03-06T14:38:32Z</time>
      </trkpt>
      <trkpt lat="43.2217" lon="-0.32206">
        <ele>319.3</ele>
        <time>2012-03-06T14:56:31Z</time>
      </trkpt>
      <trkpt lat="43.22171" lon="-0.32209">
        <ele>320.74</ele>
        <time>2012-03-06T14:59:01Z</time>
      </trkpt>
      <trkpt lat="43.22176" lon="-0.3222">
        <ele>322.66</ele>
        <time>2012-03-06T14:59:34Z</time>
      </trkpt>
      <trkpt lat="43.22179" lon="-0.32207">
        <ele>321.7</ele>
        <time>2012-03-06T15:00:05Z</time>
      </trkpt>
      <trkpt lat="43.22185" lon="-0.32197">
        <ele>320.74</ele>
        <time>2012-03-06T15:00:21Z</time>
      </trkpt>
      <trkpt lat="43.22191" lon="-0.32189">
        <ele>315.93</ele>
        <time>2012-03-06T15:00:47Z</time>
      </trkpt>
      <trkpt lat="43.22208" lon="-0.3217">
        <ele>315.45</ele>
        <time>2012-03-06T15:00:59Z</time>
      </trkpt>
      <trkpt lat="43.22215" lon="-0.32163">
        <ele>316.89</ele>
        <time>2012-03-06T15:01:08Z</time>
      </trkpt>
      <trkpt lat="43.22221" lon="-0.32154">
        <ele>319.78</ele>
        <time>2012-03-06T15:01:20Z</time>
      </trkpt>
      <trkpt lat="43.22228" lon="-0.32145">
        <ele>321.22</ele>
        <time>2012-03-06T15:01:34Z</time>
      </trkpt>
      <trkpt lat="43.22235" lon="-0.32137">
        <ele>324.58</ele>
        <time>2012-03-06T15:01:46Z</time>
      </trkpt>
      <trkpt lat="43.22242" lon="-0.32129">
        <ele>326.5</ele>
        <time>2012-03-06T15:01:58Z</time>
      </trkpt>
      <trkpt lat="43.22249" lon="-0.32119">
        <ele>327.95</ele>
        <time>2012-03-06T15:02:06Z</time>
      </trkpt>
      <trkpt lat="43.22255" lon="-0.32109">
        <ele>329.87</ele>
        <time>2012-03-06T15:02:22Z</time>
      </trkpt>
      <trkpt lat="43.22263" lon="-0.321">
        <ele>332.27</ele>
        <time>2012-03-06T15:02:36Z</time>
      </trkpt>
      <trkpt lat="43.22271" lon="-0.32091">
        <ele>333.23</ele>
        <time>2012-03-06T15:02:48Z</time>
      </trkpt>
      <trkpt lat="43.22281" lon="-0.32081">
        <ele>334.68</ele>
        <time>2012-03-06T15:02:59Z</time>
      </trkpt>
      <trkpt lat="43.22288" lon="-0.3207">
        <ele>334.68</ele>
        <time>2012-03-06T15:03:14Z</time>
      </trkpt>
      <trkpt lat="43.22286" lon="-0.32056">
        <ele>333.23</ele>
        <time>2012-03-06T15:03:31Z</time>
      </trkpt>
      <trkpt lat="43.2228" lon="-0.32046">
        <ele>329.87</ele>
        <time>2012-03-06T15:03:51Z</time>
      </trkpt>
      <trkpt lat="43.22274" lon="-0.32035">
        <ele>327.95</ele>
        <time>2012-03-06T15:03:58Z</time>
      </trkpt>
      <trkpt lat="43.22269" lon="-0.32025">
        <ele>326.99</ele>
        <time>2012-03-06T15:04:05Z</time>
      </trkpt>
      <trkpt lat="43.22262" lon="-0.32015">
        <ele>325.06</ele>
        <time>2012-03-06T15:04:14Z</time>
      </trkpt>
      <trkpt lat="43.22241" lon="-0.31979">
        <ele>320.74</ele>
        <time>2012-03-06T15:04:42Z</time>
      </trkpt>
      <trkpt lat="43.22232" lon="-0.31967">
        <ele>318.81</ele>
        <time>2012-03-06T15:04:52Z</time>
      </trkpt>
      <trkpt lat="43.22223" lon="-0.31954">
        <ele>316.89</ele>
        <time>2012-03-06T15:05:04Z</time>
      </trkpt>
      <trkpt lat="43.22213" lon="-0.31945">
        <ele>315.45</ele>
        <time>2012-03-06T15:05:14Z</time>
      </trkpt>
      <trkpt lat="43.22205" lon="-0.31936">
        <ele>314.01</ele>
        <time>2012-03-06T15:05:24Z</time>
      </trkpt>
      <trkpt lat="43.22197" lon="-0.31925">
        <ele>313.05</ele>
        <time>2012-03-06T15:05:33Z</time>
      </trkpt>
      <trkpt lat="43.22188" lon="-0.31912">
        <ele>311.12</ele>
        <time>2012-03-06T15:05:43Z</time>
      </trkpt>
      <trkpt lat="43.22181" lon="-0.31904">
        <ele>309.68</ele>
        <time>2012-03-06T15:05:51Z</time>
      </trkpt>
      <trkpt lat="43.22175" lon="-0.31895">
        <ele>307.76</ele>
        <time>2012-03-06T15:06:01Z</time>
      </trkpt>
      <trkpt lat="43.22168" lon="-0.31885">
        <ele>306.32</ele>
        <time>2012-03-06T15:06:11Z</time>
      </trkpt>
      <trkpt lat="43.22162" lon="-0.31877">
        <ele>304.39</ele>
        <time>2012-03-06T15:06:20Z</time>
      </trkpt>
      <trkpt lat="43.22155" lon="-0.31868">
        <ele>302.47</ele>
        <time>2012-03-06T15:06:32Z</time>
      </trkpt>
      <trkpt lat="43.22149" lon="-0.31858">
        <ele>301.51</ele>
        <time>2012-03-06T15:06:40Z</time>
      </trkpt>
      <trkpt lat="43.22141" lon="-0.31848">
        <ele>300.55</ele>
        <time>2012-03-06T15:06:48Z</time>
      </trkpt>
      <trkpt lat="43.22135" lon="-0.31836">
        <ele>299.59</ele>
        <time>2012-03-06T15:07:00Z</time>
      </trkpt>
      <trkpt lat="43.22127" lon="-0.31815">
        <ele>298.63</ele>
        <time>2012-03-06T15:07:18Z</time>
      </trkpt>
      <trkpt lat="43.22121" lon="-0.31803">
        <ele>298.15</ele>
        <time>2012-03-06T15:07:27Z</time>
      </trkpt>
      <trkpt lat="43.22113" lon="-0.31789">
        <ele>298.15</ele>
        <time>2012-03-06T15:07:36Z</time>
      </trkpt>
      <trkpt lat="43.22107" lon="-0.3178">
        <ele>298.15</ele>
        <time>2012-03-06T15:07:45Z</time>
      </trkpt>
      <trkpt lat="43.22097" lon="-0.3177">
        <ele>298.63</ele>
        <time>2012-03-06T15:07:56Z</time>
      </trkpt>
      <trkpt lat="43.22091" lon="-0.3176">
        <ele>298.15</ele>
        <time>2012-03-06T15:08:04Z</time>
      </trkpt>
      <trkpt lat="43.22082" lon="-0.31747">
        <ele>298.15</ele>
        <time>2012-03-06T15:08:16Z</time>
      </trkpt>
      <trkpt lat="43.22075" lon="-0.31734">
        <ele>297.67</ele>
        <time>2012-03-06T15:08:26Z</time>
      </trkpt>
      <trkpt lat="43.22069" lon="-0.31722">
        <ele>297.67</ele>
        <time>2012-03-06T15:08:35Z</time>
      </trkpt>
      <trkpt lat="43.22062" lon="-0.31714">
        <ele>297.67</ele>
        <time>2012-03-06T15:08:43Z</time>
      </trkpt>
      <trkpt lat="43.22055" lon="-0.31702">
        <ele>297.67</ele>
        <time>2012-03-06T15:08:54Z</time>
      </trkpt>
      <trkpt lat="43.22049" lon="-0.31693">
        <ele>298.15</ele>
        <time>2012-03-06T15:09:01Z</time>
      </trkpt>
      <trkpt lat="43.22041" lon="-0.31685">
        <ele>297.67</ele>
        <time>2012-03-06T15:09:11Z</time>
      </trkpt>
      <trkpt lat="43.22029" lon="-0.31675">
        <ele>297.18</ele>
        <time>2012-03-06T15:09:21Z</time>
      </trkpt>
      <trkpt lat="43.22021" lon="-0.31665">
        <ele>298.15</ele>
        <time>2012-03-06T15:09:30Z</time>
      </trkpt>
      <trkpt lat="43.22016" lon="-0.31655">
        <ele>297.18</ele>
        <time>2012-03-06T15:09:38Z</time>
      </trkpt>
      <trkpt lat="43.2201" lon="-0.31646">
        <ele>296.7</ele>
        <time>2012-03-06T15:09:47Z</time>
      </trkpt>
      <trkpt lat="43.22004" lon="-0.31635">
        <ele>297.18</ele>
        <time>2012-03-06T15:09:56Z</time>
      </trkpt>
      <trkpt lat="43.21994" lon="-0.31624">
        <ele>296.22</ele>
        <time>2012-03-06T15:10:06Z</time>
      </trkpt>
      <trkpt lat="43.21986" lon="-0.31619">
        <ele>296.22</ele>
        <time>2012-03-06T15:10:15Z</time>
      </trkpt>
      <trkpt lat="43.21979" lon="-0.31609">
        <ele>296.7</ele>
        <time>2012-03-06T15:10:23Z</time>
      </trkpt>
      <trkpt lat="43.21971" lon="-0.31599">
        <ele>295.74</ele>
        <time>2012-03-06T15:10:32Z</time>
      </trkpt>
      <trkpt lat="43.21962" lon="-0.31586">
        <ele>295.26</ele>
        <time>2012-03-06T15:10:43Z</time>
      </trkpt>
      <trkpt lat="43.2196" lon="-0.31575">
        <ele>293.34</ele>
        <time>2012-03-06T15:11:13Z</time>
      </trkpt>
      <trkpt lat="43.21966" lon="-0.31564">
        <ele>290.46</ele>
        <time>2012-03-06T15:11:28Z</time>
      </trkpt>
      <trkpt lat="43.21976" lon="-0.31566">
        <ele>286.61</ele>
        <time>2012-03-06T15:11:46Z</time>
      </trkpt>
      <trkpt lat="43.21986" lon="-0.31572">
        <ele>284.69</ele>
        <time>2012-03-06T15:11:57Z</time>
      </trkpt>
      <trkpt lat="43.21999" lon="-0.31578">
        <ele>283.25</ele>
        <time>2012-03-06T15:12:05Z</time>
      </trkpt>
      <trkpt lat="43.2201" lon="-0.31581">
        <ele>281.32</ele>
        <time>2012-03-06T15:12:13Z</time>
      </trkpt>
      <trkpt lat="43.22021" lon="-0.3157">
        <ele>277.48</ele>
        <time>2012-03-06T15:13:23Z</time>
      </trkpt>
      <trkpt lat="43.22033" lon="-0.31559">
        <ele>275.56</ele>
        <time>2012-03-06T15:13:31Z</time>
      </trkpt>
      <trkpt lat="43.22038" lon="-0.31545">
        <ele>274.59</ele>
        <time>2012-03-06T15:13:40Z</time>
      </trkpt>
      <trkpt lat="43.22041" lon="-0.3153">
        <ele>272.67</ele>
        <time>2012-03-06T15:13:50Z</time>
      </trkpt>
      <trkpt lat="43.22041" lon="-0.31516">
        <ele>270.75</ele>
        <time>2012-03-06T15:14:01Z</time>
      </trkpt>
      <trkpt lat="43.22042" lon="-0.31504">
        <ele>267.86</ele>
        <time>2012-03-06T15:14:13Z</time>
      </trkpt>
      <trkpt lat="43.22042" lon="-0.31492">
        <ele>265.46</ele>
        <time>2012-03-06T15:14:27Z</time>
      </trkpt>
      <trkpt lat="43.22046" lon="-0.3148">
        <ele>263.06</ele>
        <time>2012-03-06T15:14:40Z</time>
      </trkpt>
      <trkpt lat="43.22052" lon="-0.31471">
        <ele>261.14</ele>
        <time>2012-03-06T15:14:51Z</time>
      </trkpt>
      <trkpt lat="43.22052" lon="-0.31459">
        <ele>259.21</ele>
        <time>2012-03-06T15:15:02Z</time>
      </trkpt>
      <trkpt lat="43.22055" lon="-0.31448">
        <ele>257.77</ele>
        <time>2012-03-06T15:15:12Z</time>
      </trkpt>
      <trkpt lat="43.22062" lon="-0.31439">
        <ele>255.37</ele>
        <time>2012-03-06T15:15:23Z</time>
      </trkpt>
      <trkpt lat="43.22064" lon="-0.31428">
        <ele>252.48</ele>
        <time>2012-03-06T15:15:39Z</time>
      </trkpt>
      <trkpt lat="43.22066" lon="-0.31415">
        <ele>249.6</ele>
        <time>2012-03-06T15:15:59Z</time>
      </trkpt>
      <trkpt lat="43.22065" lon="-0.31402">
        <ele>247.2</ele>
        <time>2012-03-06T15:16:08Z</time>
      </trkpt>
      <trkpt lat="43.22066" lon="-0.31391">
        <ele>243.83</ele>
        <time>2012-03-06T15:16:32Z</time>
      </trkpt>
      <trkpt lat="43.22066" lon="-0.31379">
        <ele>241.91</ele>
        <time>2012-03-06T15:16:42Z</time>
      </trkpt>
      <trkpt lat="43.22066" lon="-0.31367">
        <ele>239.99</ele>
        <time>2012-03-06T15:16:56Z</time>
      </trkpt>
      <trkpt lat="43.22066" lon="-0.31341">
        <ele>236.62</ele>
        <time>2012-03-06T15:17:25Z</time>
      </trkpt>
      <trkpt lat="43.22067" lon="-0.31326">
        <ele>234.7</ele>
        <time>2012-03-06T15:17:41Z</time>
      </trkpt>
      <trkpt lat="43.22062" lon="-0.31298">
        <ele>229.41</ele>
        <time>2012-03-06T15:18:18Z</time>
      </trkpt>
      <trkpt lat="43.2206" lon="-0.31283">
        <ele>228.93</ele>
        <time>2012-03-06T15:18:27Z</time>
      </trkpt>
      <trkpt lat="43.22064" lon="-0.3127">
        <ele>227.01</ele>
        <time>2012-03-06T15:18:40Z</time>
      </trkpt>
      <trkpt lat="43.2206" lon="-0.31257">
        <ele>225.57</ele>
        <time>2012-03-06T15:18:50Z</time>
      </trkpt>
      <trkpt lat="43.22055" lon="-0.31247">
        <ele>224.61</ele>
        <time>2012-03-06T15:19:22Z</time>
      </trkpt>
      <trkpt lat="43.22048" lon="-0.31241">
        <ele>222.68</ele>
        <time>2012-03-06T15:19:33Z</time>
      </trkpt>
      <trkpt lat="43.22036" lon="-0.31244">
        <ele>222.2</ele>
        <time>2012-03-06T15:19:42Z</time>
      </trkpt>
      <trkpt lat="43.22028" lon="-0.31251">
        <ele>222.2</ele>
        <time>2012-03-06T15:19:52Z</time>
      </trkpt>
      <trkpt lat="43.2202" lon="-0.31259">
        <ele>221.24</ele>
        <time>2012-03-06T15:20:22Z</time>
      </trkpt>
      <trkpt lat="43.22006" lon="-0.3127">
        <ele>221.24</ele>
        <time>2012-03-06T15:20:32Z</time>
      </trkpt>
      <trkpt lat="43.21995" lon="-0.31274">
        <ele>221.24</ele>
        <time>2012-03-06T15:20:40Z</time>
      </trkpt>
      <trkpt lat="43.21986" lon="-0.31276">
        <ele>221.24</ele>
        <time>2012-03-06T15:20:50Z</time>
      </trkpt>
      <trkpt lat="43.21977" lon="-0.31279">
        <ele>222.2</ele>
        <time>2012-03-06T15:20:59Z</time>
      </trkpt>
      <trkpt lat="43.21966" lon="-0.31284">
        <ele>221.72</ele>
        <time>2012-03-06T15:21:07Z</time>
      </trkpt>
      <trkpt lat="43.21956" lon="-0.31283">
        <ele>222.2</ele>
        <time>2012-03-06T15:21:17Z</time>
      </trkpt>
      <trkpt lat="43.21945" lon="-0.31291">
        <ele>221.24</ele>
        <time>2012-03-06T15:21:25Z</time>
      </trkpt>
      <trkpt lat="43.21935" lon="-0.31293">
        <ele>222.2</ele>
        <time>2012-03-06T15:21:33Z</time>
      </trkpt>
      <trkpt lat="43.21925" lon="-0.31294">
        <ele>221.72</ele>
        <time>2012-03-06T15:21:43Z</time>
      </trkpt>
      <trkpt lat="43.21913" lon="-0.31296">
        <ele>222.2</ele>
        <time>2012-03-06T15:21:53Z</time>
      </trkpt>
      <trkpt lat="43.21902" lon="-0.31293">
        <ele>220.76</ele>
        <time>2012-03-06T15:22:03Z</time>
      </trkpt>
      <trkpt lat="43.21891" lon="-0.31292">
        <ele>220.28</ele>
        <time>2012-03-06T15:22:15Z</time>
      </trkpt>
      <trkpt lat="43.2188" lon="-0.31288">
        <ele>220.76</ele>
        <time>2012-03-06T15:22:25Z</time>
      </trkpt>
      <trkpt lat="43.21871" lon="-0.31283">
        <ele>220.28</ele>
        <time>2012-03-06T15:22:38Z</time>
      </trkpt>
      <trkpt lat="43.21861" lon="-0.31277">
        <ele>220.28</ele>
        <time>2012-03-06T15:22:47Z</time>
      </trkpt>
      <trkpt lat="43.21849" lon="-0.3127">
        <ele>219.8</ele>
        <time>2012-03-06T15:22:57Z</time>
      </trkpt>
      <trkpt lat="43.21841" lon="-0.31262">
        <ele>219.8</ele>
        <time>2012-03-06T15:23:06Z</time>
      </trkpt>
      <trkpt lat="43.2183" lon="-0.31255">
        <ele>219.32</ele>
        <time>2012-03-06T15:23:15Z</time>
      </trkpt>
      <trkpt lat="43.21822" lon="-0.31246">
        <ele>218.84</ele>
        <time>2012-03-06T15:23:23Z</time>
      </trkpt>
      <trkpt lat="43.21812" lon="-0.31234">
        <ele>218.36</ele>
        <time>2012-03-06T15:23:33Z</time>
      </trkpt>
      <trkpt lat="43.21802" lon="-0.31229">
        <ele>218.36</ele>
        <time>2012-03-06T15:23:42Z</time>
      </trkpt>
      <trkpt lat="43.21794" lon="-0.31224">
        <ele>218.36</ele>
        <time>2012-03-06T15:23:51Z</time>
      </trkpt>
      <trkpt lat="43.21785" lon="-0.31219">
        <ele>218.36</ele>
        <time>2012-03-06T15:23:59Z</time>
      </trkpt>
      <trkpt lat="43.21777" lon="-0.31215">
        <ele>218.36</ele>
        <time>2012-03-06T15:24:07Z</time>
      </trkpt>
      <trkpt lat="43.21766" lon="-0.31211">
        <ele>218.36</ele>
        <time>2012-03-06T15:25:11Z</time>
      </trkpt>
      <trkpt lat="43.21756" lon="-0.31204">
        <ele>218.36</ele>
        <time>2012-03-06T15:25:21Z</time>
      </trkpt>
      <trkpt lat="43.21747" lon="-0.31198">
        <ele>218.84</ele>
        <time>2012-03-06T15:25:30Z</time>
      </trkpt>
      <trkpt lat="43.21738" lon="-0.31192">
        <ele>218.84</ele>
        <time>2012-03-06T15:25:39Z</time>
      </trkpt>
      <trkpt lat="43.21729" lon="-0.31186">
        <ele>219.32</ele>
        <time>2012-03-06T15:25:48Z</time>
      </trkpt>
      <trkpt lat="43.21722" lon="-0.31177">
        <ele>219.8</ele>
        <time>2012-03-06T15:25:57Z</time>
      </trkpt>
      <trkpt lat="43.21714" lon="-0.31165">
        <ele>219.32</ele>
        <time>2012-03-06T15:26:08Z</time>
      </trkpt>
      <trkpt lat="43.21708" lon="-0.31151">
        <ele>219.8</ele>
        <time>2012-03-06T15:26:17Z</time>
      </trkpt>
      <trkpt lat="43.21703" lon="-0.3114">
        <ele>219.32</ele>
        <time>2012-03-06T15:26:27Z</time>
      </trkpt>
      <trkpt lat="43.21697" lon="-0.31128">
        <ele>219.32</ele>
        <time>2012-03-06T15:26:37Z</time>
      </trkpt>
      <trkpt lat="43.21687" lon="-0.31119">
        <ele>219.32</ele>
        <time>2012-03-06T15:26:48Z</time>
      </trkpt>
      <trkpt lat="43.21678" lon="-0.31109">
        <ele>219.32</ele>
        <time>2012-03-06T15:26:57Z</time>
      </trkpt>
      <trkpt lat="43.2167" lon="-0.31102">
        <ele>219.32</ele>
        <time>2012-03-06T15:27:06Z</time>
      </trkpt>
      <trkpt lat="43.21663" lon="-0.31093">
        <ele>218.84</ele>
        <time>2012-03-06T15:27:15Z</time>
      </trkpt>
      <trkpt lat="43.21656" lon="-0.31084">
        <ele>219.32</ele>
        <time>2012-03-06T15:27:24Z</time>
      </trkpt>
      <trkpt lat="43.21647" lon="-0.31074">
        <ele>219.32</ele>
        <time>2012-03-06T15:27:34Z</time>
      </trkpt>
      <trkpt lat="43.21639" lon="-0.31062">
        <ele>219.8</ele>
        <time>2012-03-06T15:27:44Z</time>
      </trkpt>
      <trkpt lat="43.21632" lon="-0.31048">
        <ele>219.8</ele>
        <time>2012-03-06T15:27:54Z</time>
      </trkpt>
      <trkpt lat="43.21624" lon="-0.31034">
        <ele>219.8</ele>
        <time>2012-03-06T15:28:04Z</time>
      </trkpt>
      <trkpt lat="43.21618" lon="-0.31024">
        <ele>219.32</ele>
        <time>2012-03-06T15:28:13Z</time>
      </trkpt>
      <trkpt lat="43.21611" lon="-0.31011">
        <ele>219.8</ele>
        <time>2012-03-06T15:28:23Z</time>
      </trkpt>
      <trkpt lat="43.21606" lon="-0.30998">
        <ele>219.8</ele>
        <time>2012-03-06T15:28:31Z</time>
      </trkpt>
      <trkpt lat="43.216" lon="-0.30989">
        <ele>220.28</ele>
        <time>2012-03-06T15:28:41Z</time>
      </trkpt>
      <trkpt lat="43.216" lon="-0.30992">
        <ele>219.8</ele>
        <time>2012-03-06T15:29:01Z</time>
      </trkpt>
      <trkpt lat="43.21602" lon="-0.31004">
        <ele>219.8</ele>
        <time>2012-03-06T15:29:08Z</time>
      </trkpt>
      <trkpt lat="43.21589" lon="-0.31025">
        <ele>220.76</ele>
        <time>2012-03-06T15:29:26Z</time>
      </trkpt>
      <trkpt lat="43.21585" lon="-0.31041">
        <ele>220.28</ele>
        <time>2012-03-06T15:29:38Z</time>
      </trkpt>
      <trkpt lat="43.21577" lon="-0.31068">
        <ele>220.76</ele>
        <time>2012-03-06T15:30:02Z</time>
      </trkpt>
      <trkpt lat="43.21573" lon="-0.31082">
        <ele>220.76</ele>
        <time>2012-03-06T15:30:12Z</time>
      </trkpt>
      <trkpt lat="43.21568" lon="-0.31093">
        <ele>219.8</ele>
        <time>2012-03-06T15:30:19Z</time>
      </trkpt>
      <trkpt lat="43.21559" lon="-0.31113">
        <ele>221.72</ele>
        <time>2012-03-06T15:30:29Z</time>
      </trkpt>
      <trkpt lat="43.21556" lon="-0.31126">
        <ele>218.36</ele>
        <time>2012-03-06T15:30:39Z</time>
      </trkpt>
      <trkpt lat="43.21552" lon="-0.31143">
        <ele>222.2</ele>
        <time>2012-03-06T15:30:50Z</time>
      </trkpt>
      <trkpt lat="43.21546" lon="-0.31155">
        <ele>227.01</ele>
        <time>2012-03-06T15:30:58Z</time>
      </trkpt>
      <trkpt lat="43.21541" lon="-0.31168">
        <ele>222.68</ele>
        <time>2012-03-06T15:31:07Z</time>
      </trkpt>
      <trkpt lat="43.21537" lon="-0.31182">
        <ele>222.68</ele>
        <time>2012-03-06T15:31:16Z</time>
      </trkpt>
      <trkpt lat="43.21533" lon="-0.31195">
        <ele>222.2</ele>
        <time>2012-03-06T15:31:25Z</time>
      </trkpt>
      <trkpt lat="43.21528" lon="-0.31207">
        <ele>223.16</ele>
        <time>2012-03-06T15:31:34Z</time>
      </trkpt>
      <trkpt lat="43.21523" lon="-0.3122">
        <ele>223.64</ele>
        <time>2012-03-06T15:31:43Z</time>
      </trkpt>
      <trkpt lat="43.21516" lon="-0.31232">
        <ele>224.61</ele>
        <time>2012-03-06T15:31:54Z</time>
      </trkpt>
      <trkpt lat="43.2151" lon="-0.31247">
        <ele>225.09</ele>
        <time>2012-03-06T15:32:05Z</time>
      </trkpt>
      <trkpt lat="43.21501" lon="-0.3126">
        <ele>225.09</ele>
        <time>2012-03-06T15:32:17Z</time>
      </trkpt>
      <trkpt lat="43.21496" lon="-0.31271">
        <ele>226.05</ele>
        <time>2012-03-06T15:32:25Z</time>
      </trkpt>
      <trkpt lat="43.21492" lon="-0.31284">
        <ele>226.53</ele>
        <time>2012-03-06T15:32:34Z</time>
      </trkpt>
      <trkpt lat="43.21486" lon="-0.31298">
        <ele>227.01</ele>
        <time>2012-03-06T15:32:43Z</time>
      </trkpt>
      <trkpt lat="43.21477" lon="-0.31315">
        <ele>227.97</ele>
        <time>2012-03-06T15:32:53Z</time>
      </trkpt>
      <trkpt lat="43.21474" lon="-0.31329">
        <ele>229.41</ele>
        <time>2012-03-06T15:33:05Z</time>
      </trkpt>
      <trkpt lat="43.21472" lon="-0.31343">
        <ele>230.37</ele>
        <time>2012-03-06T15:33:17Z</time>
      </trkpt>
      <trkpt lat="43.21467" lon="-0.31356">
        <ele>231.33</ele>
        <time>2012-03-06T15:33:28Z</time>
      </trkpt>
      <trkpt lat="43.21461" lon="-0.31365">
        <ele>232.3</ele>
        <time>2012-03-06T15:33:38Z</time>
      </trkpt>
      <trkpt lat="43.21453" lon="-0.31375">
        <ele>234.22</ele>
        <time>2012-03-06T15:33:48Z</time>
      </trkpt>
      <trkpt lat="43.21447" lon="-0.31387">
        <ele>235.18</ele>
        <time>2012-03-06T15:34:01Z</time>
      </trkpt>
      <trkpt lat="43.21438" lon="-0.31408">
        <ele>239.02</ele>
        <time>2012-03-06T15:34:26Z</time>
      </trkpt>
      <trkpt lat="43.21434" lon="-0.31419">
        <ele>239.51</ele>
        <time>2012-03-06T15:34:39Z</time>
      </trkpt>
      <trkpt lat="43.21429" lon="-0.31429">
        <ele>241.91</ele>
        <time>2012-03-06T15:34:48Z</time>
      </trkpt>
      <trkpt lat="43.21422" lon="-0.31438">
        <ele>242.87</ele>
        <time>2012-03-06T15:34:55Z</time>
      </trkpt>
      <trkpt lat="43.21418" lon="-0.31452">
        <ele>244.79</ele>
        <time>2012-03-06T15:35:04Z</time>
      </trkpt>
      <trkpt lat="43.21411" lon="-0.31461">
        <ele>247.2</ele>
        <time>2012-03-06T15:35:20Z</time>
      </trkpt>
      <trkpt lat="43.21405" lon="-0.31473">
        <ele>248.64</ele>
        <time>2012-03-06T15:35:31Z</time>
      </trkpt>
      <trkpt lat="43.21397" lon="-0.31482">
        <ele>249.12</ele>
        <time>2012-03-06T15:35:42Z</time>
      </trkpt>
      <trkpt lat="43.2139" lon="-0.31492">
        <ele>251.04</ele>
        <time>2012-03-06T15:35:56Z</time>
      </trkpt>
      <trkpt lat="43.21381" lon="-0.31504">
        <ele>252</ele>
        <time>2012-03-06T15:36:05Z</time>
      </trkpt>
      <trkpt lat="43.21373" lon="-0.31517">
        <ele>252.48</ele>
        <time>2012-03-06T15:36:16Z</time>
      </trkpt>
      <trkpt lat="43.21365" lon="-0.31527">
        <ele>252.96</ele>
        <time>2012-03-06T15:36:26Z</time>
      </trkpt>
      <trkpt lat="43.21358" lon="-0.3154">
        <ele>253.44</ele>
        <time>2012-03-06T15:36:36Z</time>
      </trkpt>
      <trkpt lat="43.2135" lon="-0.31549">
        <ele>253.44</ele>
        <time>2012-03-06T15:36:47Z</time>
      </trkpt>
      <trkpt lat="43.21342" lon="-0.31562">
        <ele>253.93</ele>
        <time>2012-03-06T15:36:59Z</time>
      </trkpt>
      <trkpt lat="43.21335" lon="-0.31575">
        <ele>254.89</ele>
        <time>2012-03-06T15:37:09Z</time>
      </trkpt>
      <trkpt lat="43.21325" lon="-0.31589">
        <ele>254.89</ele>
        <time>2012-03-06T15:37:19Z</time>
      </trkpt>
      <trkpt lat="43.21321" lon="-0.31601">
        <ele>255.37</ele>
        <time>2012-03-06T15:37:31Z</time>
      </trkpt>
      <trkpt lat="43.21315" lon="-0.31617">
        <ele>255.37</ele>
        <time>2012-03-06T15:37:44Z</time>
      </trkpt>
      <trkpt lat="43.2131" lon="-0.3163">
        <ele>255.85</ele>
        <time>2012-03-06T15:37:56Z</time>
      </trkpt>
      <trkpt lat="43.21302" lon="-0.31642">
        <ele>256.33</ele>
        <time>2012-03-06T15:38:08Z</time>
      </trkpt>
      <trkpt lat="43.21295" lon="-0.31654">
        <ele>256.33</ele>
        <time>2012-03-06T15:38:41Z</time>
      </trkpt>
      <trkpt lat="43.21286" lon="-0.31662">
        <ele>256.33</ele>
        <time>2012-03-06T15:38:49Z</time>
      </trkpt>
      <trkpt lat="43.21278" lon="-0.31671">
        <ele>256.33</ele>
        <time>2012-03-06T15:38:57Z</time>
      </trkpt>
      <trkpt lat="43.2127" lon="-0.31681">
        <ele>256.81</ele>
        <time>2012-03-06T15:39:06Z</time>
      </trkpt>
      <trkpt lat="43.21263" lon="-0.31689">
        <ele>256.81</ele>
        <time>2012-03-06T15:39:14Z</time>
      </trkpt>
      <trkpt lat="43.21257" lon="-0.31698">
        <ele>257.29</ele>
        <time>2012-03-06T15:39:52Z</time>
      </trkpt>
      <trkpt lat="43.21249" lon="-0.31706">
        <ele>257.29</ele>
        <time>2012-03-06T15:40:01Z</time>
      </trkpt>
      <trkpt lat="43.21241" lon="-0.31712">
        <ele>257.29</ele>
        <time>2012-03-06T15:40:11Z</time>
      </trkpt>
      <trkpt lat="43.21234" lon="-0.31722">
        <ele>256.81</ele>
        <time>2012-03-06T15:40:19Z</time>
      </trkpt>
      <trkpt lat="43.21228" lon="-0.31733">
        <ele>255.85</ele>
        <time>2012-03-06T15:40:27Z</time>
      </trkpt>
      <trkpt lat="43.21223" lon="-0.31745">
        <ele>254.41</ele>
        <time>2012-03-06T15:40:36Z</time>
      </trkpt>
      <trkpt lat="43.2122" lon="-0.31759">
        <ele>253.44</ele>
        <time>2012-03-06T15:40:44Z</time>
      </trkpt>
      <trkpt lat="43.21219" lon="-0.31773">
        <ele>251.04</ele>
        <time>2012-03-06T15:40:52Z</time>
      </trkpt>
      <trkpt lat="43.21218" lon="-0.31786">
        <ele>249.6</ele>
        <time>2012-03-06T15:41:00Z</time>
      </trkpt>
      <trkpt lat="43.21216" lon="-0.31801">
        <ele>248.16</ele>
        <time>2012-03-06T15:41:09Z</time>
      </trkpt>
      <trkpt lat="43.21217" lon="-0.31816">
        <ele>247.68</ele>
        <time>2012-03-06T15:41:21Z</time>
      </trkpt>
      <trkpt lat="43.21221" lon="-0.31835">
        <ele>246.23</ele>
        <time>2012-03-06T15:41:33Z</time>
      </trkpt>
      <trkpt lat="43.21224" lon="-0.31852">
        <ele>245.75</ele>
        <time>2012-03-06T15:41:44Z</time>
      </trkpt>
      <trkpt lat="43.21225" lon="-0.31863">
        <ele>245.27</ele>
        <time>2012-03-06T15:41:54Z</time>
      </trkpt>
      <trkpt lat="43.21212" lon="-0.31879">
        <ele>245.27</ele>
        <time>2012-03-06T15:43:01Z</time>
      </trkpt>
      <trkpt lat="43.21204" lon="-0.31891">
        <ele>245.27</ele>
        <time>2012-03-06T15:43:10Z</time>
      </trkpt>
      <trkpt lat="43.21196" lon="-0.31904">
        <ele>245.27</ele>
        <time>2012-03-06T15:43:20Z</time>
      </trkpt>
      <trkpt lat="43.21189" lon="-0.31916">
        <ele>246.23</ele>
        <time>2012-03-06T15:43:29Z</time>
      </trkpt>
      <trkpt lat="43.21183" lon="-0.31928">
        <ele>247.68</ele>
        <time>2012-03-06T15:43:39Z</time>
      </trkpt>
      <trkpt lat="43.21175" lon="-0.31936">
        <ele>248.16</ele>
        <time>2012-03-06T15:43:47Z</time>
      </trkpt>
      <trkpt lat="43.21165" lon="-0.31943">
        <ele>249.6</ele>
        <time>2012-03-06T15:43:56Z</time>
      </trkpt>
      <trkpt lat="43.21155" lon="-0.31944">
        <ele>251.04</ele>
        <time>2012-03-06T15:44:06Z</time>
      </trkpt>
      <trkpt lat="43.21147" lon="-0.31947">
        <ele>251.52</ele>
        <time>2012-03-06T15:44:15Z</time>
      </trkpt>
      <trkpt lat="43.21138" lon="-0.31949">
        <ele>252.96</ele>
        <time>2012-03-06T15:44:25Z</time>
      </trkpt>
      <trkpt lat="43.21129" lon="-0.31948">
        <ele>254.41</ele>
        <time>2012-03-06T15:44:35Z</time>
      </trkpt>
      <trkpt lat="43.21119" lon="-0.31946">
        <ele>254.89</ele>
        <time>2012-03-06T15:44:45Z</time>
      </trkpt>
      <trkpt lat="43.21109" lon="-0.31941">
        <ele>256.33</ele>
        <time>2012-03-06T15:44:55Z</time>
      </trkpt>
      <trkpt lat="43.21099" lon="-0.31937">
        <ele>257.29</ele>
        <time>2012-03-06T15:45:05Z</time>
      </trkpt>
      <trkpt lat="43.2109" lon="-0.31935">
        <ele>258.25</ele>
        <time>2012-03-06T15:45:17Z</time>
      </trkpt>
      <trkpt lat="43.21085" lon="-0.31945">
        <ele>260.65</ele>
        <time>2012-03-06T15:45:30Z</time>
      </trkpt>
      <trkpt lat="43.21086" lon="-0.31957">
        <ele>262.58</ele>
        <time>2012-03-06T15:45:43Z</time>
      </trkpt>
      <trkpt lat="43.2109" lon="-0.31972">
        <ele>264.02</ele>
        <time>2012-03-06T15:45:55Z</time>
      </trkpt>
      <trkpt lat="43.2109" lon="-0.31987">
        <ele>265.94</ele>
        <time>2012-03-06T15:46:08Z</time>
      </trkpt>
      <trkpt lat="43.21091" lon="-0.32">
        <ele>267.38</ele>
        <time>2012-03-06T15:46:20Z</time>
      </trkpt>
      <trkpt lat="43.21084" lon="-0.32014">
        <ele>268.83</ele>
        <time>2012-03-06T15:46:32Z</time>
      </trkpt>
      <trkpt lat="43.21078" lon="-0.32032">
        <ele>269.79</ele>
        <time>2012-03-06T15:46:43Z</time>
      </trkpt>
      <trkpt lat="43.21081" lon="-0.32045">
        <ele>271.23</ele>
        <time>2012-03-06T15:46:55Z</time>
      </trkpt>
      <trkpt lat="43.21083" lon="-0.3206">
        <ele>271.71</ele>
        <time>2012-03-06T15:47:07Z</time>
      </trkpt>
      <trkpt lat="43.21085" lon="-0.32073">
        <ele>273.15</ele>
        <time>2012-03-06T15:47:18Z</time>
      </trkpt>
      <trkpt lat="43.21085" lon="-0.32085">
        <ele>273.63</ele>
        <time>2012-03-06T15:47:26Z</time>
      </trkpt>
      <trkpt lat="43.21085" lon="-0.321">
        <ele>274.59</ele>
        <time>2012-03-06T15:47:37Z</time>
      </trkpt>
      <trkpt lat="43.21086" lon="-0.32113">
        <ele>275.56</ele>
        <time>2012-03-06T15:47:48Z</time>
      </trkpt>
      <trkpt lat="43.21089" lon="-0.32128">
        <ele>277</ele>
        <time>2012-03-06T15:47:58Z</time>
      </trkpt>
      <trkpt lat="43.21091" lon="-0.32141">
        <ele>277.48</ele>
        <time>2012-03-06T15:48:08Z</time>
      </trkpt>
      <trkpt lat="43.21092" lon="-0.32154">
        <ele>277.96</ele>
        <time>2012-03-06T15:48:18Z</time>
      </trkpt>
      <trkpt lat="43.21091" lon="-0.32168">
        <ele>279.4</ele>
        <time>2012-03-06T15:48:27Z</time>
      </trkpt>
      <trkpt lat="43.21093" lon="-0.3218">
        <ele>280.84</ele>
        <time>2012-03-06T15:48:37Z</time>
      </trkpt>
      <trkpt lat="43.21093" lon="-0.32194">
        <ele>281.8</ele>
        <time>2012-03-06T15:48:47Z</time>
      </trkpt>
      <trkpt lat="43.21094" lon="-0.32206">
        <ele>282.77</ele>
        <time>2012-03-06T15:48:58Z</time>
      </trkpt>
      <trkpt lat="43.21095" lon="-0.3222">
        <ele>284.69</ele>
        <time>2012-03-06T15:49:13Z</time>
      </trkpt>
      <trkpt lat="43.21094" lon="-0.32232">
        <ele>286.61</ele>
        <time>2012-03-06T15:49:27Z</time>
      </trkpt>
      <trkpt lat="43.21093" lon="-0.32244">
        <ele>288.05</ele>
        <time>2012-03-06T15:50:06Z</time>
      </trkpt>
      <trkpt lat="43.21093" lon="-0.32264">
        <ele>291.9</ele>
        <time>2012-03-06T15:50:28Z</time>
      </trkpt>
      <trkpt lat="43.2108" lon="-0.32292">
        <ele>293.82</ele>
        <time>2012-03-06T15:50:43Z</time>
      </trkpt>
      <trkpt lat="43.21078" lon="-0.32305">
        <ele>295.26</ele>
        <time>2012-03-06T15:50:53Z</time>
      </trkpt>
      <trkpt lat="43.21075" lon="-0.32318">
        <ele>296.22</ele>
        <time>2012-03-06T15:51:05Z</time>
      </trkpt>
      <trkpt lat="43.21076" lon="-0.3233">
        <ele>297.67</ele>
        <time>2012-03-06T15:51:17Z</time>
      </trkpt>
      <trkpt lat="43.21077" lon="-0.32345">
        <ele>298.15</ele>
        <time>2012-03-06T15:51:28Z</time>
      </trkpt>
      <trkpt lat="43.21074" lon="-0.32364">
        <ele>298.63</ele>
        <time>2012-03-06T15:51:38Z</time>
      </trkpt>
      <trkpt lat="43.21068" lon="-0.32384">
        <ele>299.11</ele>
        <time>2012-03-06T15:51:47Z</time>
      </trkpt>
      <trkpt lat="43.21069" lon="-0.32397">
        <ele>300.07</ele>
        <time>2012-03-06T15:51:56Z</time>
      </trkpt>
      <trkpt lat="43.21069" lon="-0.32412">
        <ele>300.07</ele>
        <time>2012-03-06T15:52:06Z</time>
      </trkpt>
      <trkpt lat="43.21068" lon="-0.32429">
        <ele>300.55</ele>
        <time>2012-03-06T15:52:17Z</time>
      </trkpt>
      <trkpt lat="43.21066" lon="-0.32443">
        <ele>301.03</ele>
        <time>2012-03-06T15:52:27Z</time>
      </trkpt>
      <trkpt lat="43.21057" lon="-0.32451">
        <ele>300.07</ele>
        <time>2012-03-06T15:52:35Z</time>
      </trkpt>
      <trkpt lat="43.21051" lon="-0.32465">
        <ele>299.59</ele>
        <time>2012-03-06T15:52:44Z</time>
      </trkpt>
      <trkpt lat="43.21044" lon="-0.32486">
        <ele>299.59</ele>
        <time>2012-03-06T15:52:55Z</time>
      </trkpt>
      <trkpt lat="43.2104" lon="-0.325">
        <ele>300.07</ele>
        <time>2012-03-06T15:53:06Z</time>
      </trkpt>
      <trkpt lat="43.2104" lon="-0.32515">
        <ele>300.55</ele>
        <time>2012-03-06T15:53:15Z</time>
      </trkpt>
      <trkpt lat="43.21038" lon="-0.32528">
        <ele>301.03</ele>
        <time>2012-03-06T15:53:24Z</time>
      </trkpt>
      <trkpt lat="43.21035" lon="-0.3254">
        <ele>301.51</ele>
        <time>2012-03-06T15:53:33Z</time>
      </trkpt>
      <trkpt lat="43.21035" lon="-0.32553">
        <ele>301.99</ele>
        <time>2012-03-06T15:53:42Z</time>
      </trkpt>
      <trkpt lat="43.21036" lon="-0.32564">
        <ele>304.88</ele>
        <time>2012-03-06T15:54:42Z</time>
      </trkpt>
      <trkpt lat="43.21033" lon="-0.32601">
        <ele>306.32</ele>
        <time>2012-03-06T15:54:54Z</time>
      </trkpt>
      <trkpt lat="43.21028" lon="-0.32625">
        <ele>309.68</ele>
        <time>2012-03-06T15:55:18Z</time>
      </trkpt>
      <trkpt lat="43.21021" lon="-0.32634">
        <ele>311.12</ele>
        <time>2012-03-06T15:55:25Z</time>
      </trkpt>
      <trkpt lat="43.21018" lon="-0.32646">
        <ele>312.09</ele>
        <time>2012-03-06T15:55:34Z</time>
      </trkpt>
      <trkpt lat="43.21006" lon="-0.32676">
        <ele>316.41</ele>
        <time>2012-03-06T15:56:02Z</time>
      </trkpt>
      <trkpt lat="43.20999" lon="-0.3269">
        <ele>317.37</ele>
        <time>2012-03-06T15:56:10Z</time>
      </trkpt>
      <trkpt lat="43.20995" lon="-0.32702">
        <ele>318.81</ele>
        <time>2012-03-06T15:56:20Z</time>
      </trkpt>
      <trkpt lat="43.20988" lon="-0.32707">
        <ele>320.26</ele>
        <time>2012-03-06T15:56:31Z</time>
      </trkpt>
      <trkpt lat="43.2098" lon="-0.32704">
        <ele>323.14</ele>
        <time>2012-03-06T15:56:44Z</time>
      </trkpt>
      <trkpt lat="43.20973" lon="-0.32697">
        <ele>324.58</ele>
        <time>2012-03-06T15:56:54Z</time>
      </trkpt>
      <trkpt lat="43.20966" lon="-0.32686">
        <ele>326.5</ele>
        <time>2012-03-06T15:57:06Z</time>
      </trkpt>
      <trkpt lat="43.20961" lon="-0.32671">
        <ele>326.5</ele>
        <time>2012-03-06T15:57:15Z</time>
      </trkpt>
      <trkpt lat="43.20956" lon="-0.3266">
        <ele>326.99</ele>
        <time>2012-03-06T15:57:25Z</time>
      </trkpt>
      <trkpt lat="43.2095" lon="-0.32649">
        <ele>327.95</ele>
        <time>2012-03-06T15:57:34Z</time>
      </trkpt>
      <trkpt lat="43.20942" lon="-0.32637">
        <ele>328.43</ele>
        <time>2012-03-06T15:57:42Z</time>
      </trkpt>
      <trkpt lat="43.20932" lon="-0.32633">
        <ele>328.91</ele>
        <time>2012-03-06T15:57:50Z</time>
      </trkpt>
      <trkpt lat="43.20927" lon="-0.3265">
        <ele>329.87</ele>
        <time>2012-03-06T15:58:00Z</time>
      </trkpt>
      <trkpt lat="43.20924" lon="-0.32664">
        <ele>331.31</ele>
        <time>2012-03-06T15:58:09Z</time>
      </trkpt>
      <trkpt lat="43.20921" lon="-0.3268">
        <ele>332.75</ele>
        <time>2012-03-06T15:58:20Z</time>
      </trkpt>
      <trkpt lat="43.20916" lon="-0.32696">
        <ele>333.23</ele>
        <time>2012-03-06T15:58:29Z</time>
      </trkpt>
      <trkpt lat="43.20911" lon="-0.32711">
        <ele>334.68</ele>
        <time>2012-03-06T15:58:39Z</time>
      </trkpt>
      <trkpt lat="43.20906" lon="-0.32725">
        <ele>335.16</ele>
        <time>2012-03-06T15:58:49Z</time>
      </trkpt>
      <trkpt lat="43.20902" lon="-0.32737">
        <ele>336.6</ele>
        <time>2012-03-06T15:58:57Z</time>
      </trkpt>
      <trkpt lat="43.20901" lon="-0.32752">
        <ele>337.56</ele>
        <time>2012-03-06T15:59:09Z</time>
      </trkpt>
      <trkpt lat="43.209" lon="-0.32764">
        <ele>338.52</ele>
        <time>2012-03-06T15:59:17Z</time>
      </trkpt>
      <trkpt lat="43.20902" lon="-0.32781">
        <ele>339.96</ele>
        <time>2012-03-06T15:59:27Z</time>
      </trkpt>
      <trkpt lat="43.20906" lon="-0.32798">
        <ele>341.41</ele>
        <time>2012-03-06T15:59:38Z</time>
      </trkpt>
      <trkpt lat="43.2091" lon="-0.32812">
        <ele>342.85</ele>
        <time>2012-03-06T15:59:49Z</time>
      </trkpt>
      <trkpt lat="43.20914" lon="-0.32825">
        <ele>343.33</ele>
        <time>2012-03-06T15:59:59Z</time>
      </trkpt>
      <trkpt lat="43.20915" lon="-0.32837">
        <ele>345.25</ele>
        <time>2012-03-06T16:00:07Z</time>
      </trkpt>
      <trkpt lat="43.20919" lon="-0.3285">
        <ele>346.69</ele>
        <time>2012-03-06T16:00:17Z</time>
      </trkpt>
      <trkpt lat="43.20918" lon="-0.32865">
        <ele>348.62</ele>
        <time>2012-03-06T16:00:26Z</time>
      </trkpt>
      <trkpt lat="43.20918" lon="-0.32879">
        <ele>350.06</ele>
        <time>2012-03-06T16:00:36Z</time>
      </trkpt>
      <trkpt lat="43.20921" lon="-0.3289">
        <ele>352.46</ele>
        <time>2012-03-06T16:00:48Z</time>
      </trkpt>
      <trkpt lat="43.20922" lon="-0.32904">
        <ele>353.9</ele>
        <time>2012-03-06T16:00:57Z</time>
      </trkpt>
      <trkpt lat="43.20925" lon="-0.32917">
        <ele>355.34</ele>
        <time>2012-03-06T16:01:14Z</time>
      </trkpt>
      <trkpt lat="43.20923" lon="-0.32933">
        <ele>356.79</ele>
        <time>2012-03-06T16:01:26Z</time>
      </trkpt>
      <trkpt lat="43.20925" lon="-0.32947">
        <ele>357.75</ele>
        <time>2012-03-06T16:01:36Z</time>
      </trkpt>
      <trkpt lat="43.20925" lon="-0.32962">
        <ele>358.23</ele>
        <time>2012-03-06T16:01:46Z</time>
      </trkpt>
      <trkpt lat="43.20927" lon="-0.32976">
        <ele>359.19</ele>
        <time>2012-03-06T16:01:55Z</time>
      </trkpt>
      <trkpt lat="43.20929" lon="-0.32989">
        <ele>359.67</ele>
        <time>2012-03-06T16:02:04Z</time>
      </trkpt>
      <trkpt lat="43.20931" lon="-0.33004">
        <ele>360.63</ele>
        <time>2012-03-06T16:02:14Z</time>
      </trkpt>
      <trkpt lat="43.20934" lon="-0.33017">
        <ele>362.55</ele>
        <time>2012-03-06T16:02:23Z</time>
      </trkpt>
      <trkpt lat="43.20936" lon="-0.33031">
        <ele>364</ele>
        <time>2012-03-06T16:02:33Z</time>
      </trkpt>
      <trkpt lat="43.20937" lon="-0.33044">
        <ele>365.44</ele>
        <time>2012-03-06T16:02:43Z</time>
      </trkpt>
      <trkpt lat="43.20938" lon="-0.33057">
        <ele>366.4</ele>
        <time>2012-03-06T16:02:53Z</time>
      </trkpt>
      <trkpt lat="43.20939" lon="-0.33071">
        <ele>367.84</ele>
        <time>2012-03-06T16:03:04Z</time>
      </trkpt>
      <trkpt lat="43.20937" lon="-0.33086">
        <ele>369.76</ele>
        <time>2012-03-06T16:03:14Z</time>
      </trkpt>
      <trkpt lat="43.20935" lon="-0.331">
        <ele>369.76</ele>
        <time>2012-03-06T16:03:24Z</time>
      </trkpt>
      <trkpt lat="43.20934" lon="-0.33115">
        <ele>371.69</ele>
        <time>2012-03-06T16:03:34Z</time>
      </trkpt>
      <trkpt lat="43.20935" lon="-0.33129">
        <ele>372.17</ele>
        <time>2012-03-06T16:03:44Z</time>
      </trkpt>
      <trkpt lat="43.20937" lon="-0.33143">
        <ele>373.13</ele>
        <time>2012-03-06T16:03:54Z</time>
      </trkpt>
      <trkpt lat="43.20941" lon="-0.33157">
        <ele>374.09</ele>
        <time>2012-03-06T16:04:04Z</time>
      </trkpt>
      <trkpt lat="43.20941" lon="-0.33171">
        <ele>374.57</ele>
        <time>2012-03-06T16:04:14Z</time>
      </trkpt>
      <trkpt lat="43.20941" lon="-0.33184">
        <ele>374.09</ele>
        <time>2012-03-06T16:04:23Z</time>
      </trkpt>
      <trkpt lat="43.20942" lon="-0.33197">
        <ele>375.05</ele>
        <time>2012-03-06T16:04:32Z</time>
      </trkpt>
      <trkpt lat="43.20942" lon="-0.33211">
        <ele>374.57</ele>
        <time>2012-03-06T16:04:40Z</time>
      </trkpt>
      <trkpt lat="43.20942" lon="-0.33226">
        <ele>375.53</ele>
        <time>2012-03-06T16:04:49Z</time>
      </trkpt>
      <trkpt lat="43.20943" lon="-0.3324">
        <ele>375.53</ele>
        <time>2012-03-06T16:04:58Z</time>
      </trkpt>
      <trkpt lat="43.20943" lon="-0.33256">
        <ele>376.01</ele>
        <time>2012-03-06T16:05:07Z</time>
      </trkpt>
      <trkpt lat="43.20944" lon="-0.3327">
        <ele>376.01</ele>
        <time>2012-03-06T16:05:16Z</time>
      </trkpt>
      <trkpt lat="43.20947" lon="-0.33284">
        <ele>376.49</ele>
        <time>2012-03-06T16:05:26Z</time>
      </trkpt>
      <trkpt lat="43.20951" lon="-0.33298">
        <ele>376.49</ele>
        <time>2012-03-06T16:05:37Z</time>
      </trkpt>
    </trkseg>
  </trk>
</gpx>